<?xml version="1.0" encoding="UTF-8" standalone="no" ?>
<gpx xmlns="http://www.topografix.com/GPX/1/1" xmlns:xsi="http://www.w3.org/2001/XMLSchema-instance" xsi:schemaLocation="http://www.topografix.com/GPX/1/1 http://www.topografix.com/GPX/1/1/gpx.xsd" version="1.1" creator="VisuGPX - https://www.visugpx.com">
  <metadata>
    <name>170208HR3ROBJeunes</name>
    <desc><![CDATA[Excellent sortie sous la pluie]]></desc>
  </metadata>
  <trk>
    <name><![CDATA[170208HR3ROBJeunes]]></name>
    <trkseg>
      <trkpt lat="43.41636" lon="6.06525">
        <ele>226.39999389648</ele>
        <time>2017-02-08T13:08:12Z</time>
      </trkpt>
      <trkpt lat="43.41414" lon="6.07195">
        <ele>226.39999389648</ele>
        <time>2017-02-08T13:09:39Z</time>
      </trkpt>
      <trkpt lat="43.4141" lon="6.07208">
        <ele>226.39999389648</ele>
        <time>2017-02-08T13:09:42Z</time>
      </trkpt>
      <trkpt lat="43.41404" lon="6.07228">
        <ele>226.19999694824</ele>
        <time>2017-02-08T13:09:44Z</time>
      </trkpt>
      <trkpt lat="43.41391" lon="6.07264">
        <ele>225.80000305176</ele>
        <time>2017-02-08T13:09:48Z</time>
      </trkpt>
      <trkpt lat="43.4139" lon="6.07271">
        <ele>225.80000305176</ele>
        <time>2017-02-08T13:09:49Z</time>
      </trkpt>
      <trkpt lat="43.41376" lon="6.07318">
        <ele>225.80000305176</ele>
        <time>2017-02-08T13:09:56Z</time>
      </trkpt>
      <trkpt lat="43.41377" lon="6.07331">
        <ele>225.60000610352</ele>
        <time>2017-02-08T13:09:58Z</time>
      </trkpt>
      <trkpt lat="43.4138" lon="6.07336">
        <ele>225.39999389648</ele>
        <time>2017-02-08T13:09:59Z</time>
      </trkpt>
      <trkpt lat="43.41384" lon="6.07338">
        <ele>225.39999389648</ele>
        <time>2017-02-08T13:10:00Z</time>
      </trkpt>
      <trkpt lat="43.41415" lon="6.07336">
        <ele>225.80000305176</ele>
        <time>2017-02-08T13:10:07Z</time>
      </trkpt>
      <trkpt lat="43.41423" lon="6.07335">
        <ele>226</ele>
        <time>2017-02-08T13:10:09Z</time>
      </trkpt>
      <trkpt lat="43.41461" lon="6.07337">
        <ele>226.39999389648</ele>
        <time>2017-02-08T13:10:19Z</time>
      </trkpt>
      <trkpt lat="43.41493" lon="6.07361">
        <ele>226.60000610352</ele>
        <time>2017-02-08T13:10:29Z</time>
      </trkpt>
      <trkpt lat="43.4151" lon="6.07382">
        <ele>226.19999694824</ele>
        <time>2017-02-08T13:10:34Z</time>
      </trkpt>
      <trkpt lat="43.41525" lon="6.07406">
        <ele>226.19999694824</ele>
        <time>2017-02-08T13:10:39Z</time>
      </trkpt>
      <trkpt lat="43.41543" lon="6.07442">
        <ele>226.60000610352</ele>
        <time>2017-02-08T13:10:47Z</time>
      </trkpt>
      <trkpt lat="43.4155" lon="6.07444">
        <ele>227</ele>
        <time>2017-02-08T13:10:49Z</time>
      </trkpt>
      <trkpt lat="43.41554" lon="6.07444">
        <ele>227.19999694824</ele>
        <time>2017-02-08T13:10:50Z</time>
      </trkpt>
      <trkpt lat="43.41565" lon="6.07442">
        <ele>227.80000305176</ele>
        <time>2017-02-08T13:10:53Z</time>
      </trkpt>
      <trkpt lat="43.41568" lon="6.07441">
        <ele>228</ele>
        <time>2017-02-08T13:10:54Z</time>
      </trkpt>
      <trkpt lat="43.41582" lon="6.07439">
        <ele>229.19999694824</ele>
        <time>2017-02-08T13:10:59Z</time>
      </trkpt>
      <trkpt lat="43.41593" lon="6.07437">
        <ele>229.80000305176</ele>
        <time>2017-02-08T13:11:03Z</time>
      </trkpt>
      <trkpt lat="43.416" lon="6.07436">
        <ele>230.19999694824</ele>
        <time>2017-02-08T13:11:05Z</time>
      </trkpt>
      <trkpt lat="43.41614" lon="6.07433">
        <ele>231</ele>
        <time>2017-02-08T13:11:09Z</time>
      </trkpt>
      <trkpt lat="43.41622" lon="6.07433">
        <ele>231.39999389648</ele>
        <time>2017-02-08T13:11:11Z</time>
      </trkpt>
      <trkpt lat="43.41653" lon="6.0743">
        <ele>231.39999389648</ele>
        <time>2017-02-08T13:11:19Z</time>
      </trkpt>
      <trkpt lat="43.41685" lon="6.07426">
        <ele>233</ele>
        <time>2017-02-08T13:11:29Z</time>
      </trkpt>
      <trkpt lat="43.41694" lon="6.07424">
        <ele>233.60000610352</ele>
        <time>2017-02-08T13:11:32Z</time>
      </trkpt>
      <trkpt lat="43.41705" lon="6.07422">
        <ele>234.80000305176</ele>
        <time>2017-02-08T13:11:36Z</time>
      </trkpt>
      <trkpt lat="43.41712" lon="6.0742">
        <ele>235.60000610352</ele>
        <time>2017-02-08T13:11:39Z</time>
      </trkpt>
      <trkpt lat="43.41717" lon="6.07419">
        <ele>236</ele>
        <time>2017-02-08T13:11:41Z</time>
      </trkpt>
      <trkpt lat="43.41724" lon="6.07417">
        <ele>237</ele>
        <time>2017-02-08T13:11:45Z</time>
      </trkpt>
      <trkpt lat="43.41739" lon="6.07413">
        <ele>239.19999694824</ele>
        <time>2017-02-08T13:11:54Z</time>
      </trkpt>
      <trkpt lat="43.41749" lon="6.07411">
        <ele>240.19999694824</ele>
        <time>2017-02-08T13:11:59Z</time>
      </trkpt>
      <trkpt lat="43.41761" lon="6.0741">
        <ele>241.19999694824</ele>
        <time>2017-02-08T13:12:05Z</time>
      </trkpt>
      <trkpt lat="43.41768" lon="6.07409">
        <ele>242</ele>
        <time>2017-02-08T13:12:09Z</time>
      </trkpt>
      <trkpt lat="43.41772" lon="6.07408">
        <ele>242.19999694824</ele>
        <time>2017-02-08T13:12:11Z</time>
      </trkpt>
      <trkpt lat="43.41782" lon="6.07406">
        <ele>243.39999389648</ele>
        <time>2017-02-08T13:12:17Z</time>
      </trkpt>
      <trkpt lat="43.41793" lon="6.07406">
        <ele>244.39999389648</ele>
        <time>2017-02-08T13:12:23Z</time>
      </trkpt>
      <trkpt lat="43.41801" lon="6.07408">
        <ele>245.19999694824</ele>
        <time>2017-02-08T13:12:29Z</time>
      </trkpt>
      <trkpt lat="43.41805" lon="6.07412">
        <ele>245.39999389648</ele>
        <time>2017-02-08T13:12:31Z</time>
      </trkpt>
      <trkpt lat="43.4181" lon="6.07419">
        <ele>246</ele>
        <time>2017-02-08T13:12:36Z</time>
      </trkpt>
      <trkpt lat="43.41812" lon="6.07426">
        <ele>246.60000610352</ele>
        <time>2017-02-08T13:12:39Z</time>
      </trkpt>
      <trkpt lat="43.41817" lon="6.07438">
        <ele>247.80000305176</ele>
        <time>2017-02-08T13:12:47Z</time>
      </trkpt>
      <trkpt lat="43.41819" lon="6.0744">
        <ele>248</ele>
        <time>2017-02-08T13:12:49Z</time>
      </trkpt>
      <trkpt lat="43.41821" lon="6.07441">
        <ele>248.19999694824</ele>
        <time>2017-02-08T13:12:53Z</time>
      </trkpt>
      <trkpt lat="43.41825" lon="6.0744">
        <ele>248.19999694824</ele>
        <time>2017-02-08T13:12:57Z</time>
      </trkpt>
      <trkpt lat="43.41826" lon="6.07441">
        <ele>248.19999694824</ele>
        <time>2017-02-08T13:12:59Z</time>
      </trkpt>
      <trkpt lat="43.41827" lon="6.07441">
        <ele>248.19999694824</ele>
        <time>2017-02-08T13:13:01Z</time>
      </trkpt>
      <trkpt lat="43.41829" lon="6.07441">
        <ele>248.19999694824</ele>
        <time>2017-02-08T13:13:05Z</time>
      </trkpt>
      <trkpt lat="43.41831" lon="6.07442">
        <ele>248.19999694824</ele>
        <time>2017-02-08T13:13:08Z</time>
      </trkpt>
      <trkpt lat="43.41833" lon="6.07442">
        <ele>248.19999694824</ele>
        <time>2017-02-08T13:13:10Z</time>
      </trkpt>
      <trkpt lat="43.41842" lon="6.07443">
        <ele>248.39999389648</ele>
        <time>2017-02-08T13:13:17Z</time>
      </trkpt>
      <trkpt lat="43.41845" lon="6.07443">
        <ele>248.39999389648</ele>
        <time>2017-02-08T13:13:19Z</time>
      </trkpt>
      <trkpt lat="43.41856" lon="6.07442">
        <ele>248.39999389648</ele>
        <time>2017-02-08T13:13:25Z</time>
      </trkpt>
      <trkpt lat="43.41865" lon="6.0744">
        <ele>248.60000610352</ele>
        <time>2017-02-08T13:13:29Z</time>
      </trkpt>
      <trkpt lat="43.41867" lon="6.0744">
        <ele>248.80000305176</ele>
        <time>2017-02-08T13:13:30Z</time>
      </trkpt>
      <trkpt lat="43.41878" lon="6.0744">
        <ele>249.19999694824</ele>
        <time>2017-02-08T13:13:35Z</time>
      </trkpt>
      <trkpt lat="43.41885" lon="6.07439">
        <ele>249.60000610352</ele>
        <time>2017-02-08T13:13:38Z</time>
      </trkpt>
      <trkpt lat="43.41889" lon="6.07438">
        <ele>250</ele>
        <time>2017-02-08T13:13:40Z</time>
      </trkpt>
      <trkpt lat="43.41899" lon="6.07438">
        <ele>251</ele>
        <time>2017-02-08T13:13:45Z</time>
      </trkpt>
      <trkpt lat="43.41906" lon="6.07437">
        <ele>251.60000610352</ele>
        <time>2017-02-08T13:13:48Z</time>
      </trkpt>
      <trkpt lat="43.41911" lon="6.07438">
        <ele>252.19999694824</ele>
        <time>2017-02-08T13:13:51Z</time>
      </trkpt>
      <trkpt lat="43.41926" lon="6.07438">
        <ele>253.39999389648</ele>
        <time>2017-02-08T13:13:58Z</time>
      </trkpt>
      <trkpt lat="43.41928" lon="6.07438">
        <ele>253.60000610352</ele>
        <time>2017-02-08T13:13:59Z</time>
      </trkpt>
      <trkpt lat="43.41935" lon="6.07436">
        <ele>254.39999389648</ele>
        <time>2017-02-08T13:14:03Z</time>
      </trkpt>
      <trkpt lat="43.41948" lon="6.07431">
        <ele>255.60000610352</ele>
        <time>2017-02-08T13:14:10Z</time>
      </trkpt>
      <trkpt lat="43.41964" lon="6.07427">
        <ele>256.60000610352</ele>
        <time>2017-02-08T13:14:19Z</time>
      </trkpt>
      <trkpt lat="43.41966" lon="6.07426">
        <ele>256.60000610352</ele>
        <time>2017-02-08T13:14:20Z</time>
      </trkpt>
      <trkpt lat="43.41982" lon="6.07425">
        <ele>257.60000610352</ele>
        <time>2017-02-08T13:14:29Z</time>
      </trkpt>
      <trkpt lat="43.41986" lon="6.07424">
        <ele>257.79998779297</ele>
        <time>2017-02-08T13:14:31Z</time>
      </trkpt>
      <trkpt lat="43.41994" lon="6.07425">
        <ele>258.20001220703</ele>
        <time>2017-02-08T13:14:37Z</time>
      </trkpt>
      <trkpt lat="43.41998" lon="6.07432">
        <ele>258.39999389648</ele>
        <time>2017-02-08T13:14:41Z</time>
      </trkpt>
      <trkpt lat="43.41999" lon="6.07438">
        <ele>258.60000610352</ele>
        <time>2017-02-08T13:14:44Z</time>
      </trkpt>
      <trkpt lat="43.41999" lon="6.07441">
        <ele>258.60000610352</ele>
        <time>2017-02-08T13:14:45Z</time>
      </trkpt>
      <trkpt lat="43.42001" lon="6.07451">
        <ele>258.60000610352</ele>
        <time>2017-02-08T13:14:49Z</time>
      </trkpt>
      <trkpt lat="43.42006" lon="6.07473">
        <ele>258.79998779297</ele>
        <time>2017-02-08T13:14:57Z</time>
      </trkpt>
      <trkpt lat="43.42008" lon="6.07478">
        <ele>258.79998779297</ele>
        <time>2017-02-08T13:14:59Z</time>
      </trkpt>
      <trkpt lat="43.42014" lon="6.07495">
        <ele>259.20001220703</ele>
        <time>2017-02-08T13:15:05Z</time>
      </trkpt>
      <trkpt lat="43.4202" lon="6.07502">
        <ele>259.20001220703</ele>
        <time>2017-02-08T13:15:09Z</time>
      </trkpt>
      <trkpt lat="43.42046" lon="6.07502">
        <ele>259.39999389648</ele>
        <time>2017-02-08T13:15:19Z</time>
      </trkpt>
      <trkpt lat="43.42051" lon="6.07502">
        <ele>259.60000610352</ele>
        <time>2017-02-08T13:15:22Z</time>
      </trkpt>
      <trkpt lat="43.42066" lon="6.075">
        <ele>259.60000610352</ele>
        <time>2017-02-08T13:15:29Z</time>
      </trkpt>
      <trkpt lat="43.42078" lon="6.07499">
        <ele>259.39999389648</ele>
        <time>2017-02-08T13:15:34Z</time>
      </trkpt>
      <trkpt lat="43.42088" lon="6.07498">
        <ele>259.39999389648</ele>
        <time>2017-02-08T13:15:39Z</time>
      </trkpt>
      <trkpt lat="43.42102" lon="6.07497">
        <ele>259</ele>
        <time>2017-02-08T13:15:44Z</time>
      </trkpt>
      <trkpt lat="43.42116" lon="6.07494">
        <ele>257.79998779297</ele>
        <time>2017-02-08T13:15:48Z</time>
      </trkpt>
      <trkpt lat="43.4212" lon="6.07492">
        <ele>257.39999389648</ele>
        <time>2017-02-08T13:15:49Z</time>
      </trkpt>
      <trkpt lat="43.42125" lon="6.07484">
        <ele>256.79998779297</ele>
        <time>2017-02-08T13:15:51Z</time>
      </trkpt>
      <trkpt lat="43.42127" lon="6.07479">
        <ele>256.60000610352</ele>
        <time>2017-02-08T13:15:52Z</time>
      </trkpt>
      <trkpt lat="43.42131" lon="6.07466">
        <ele>256</ele>
        <time>2017-02-08T13:15:54Z</time>
      </trkpt>
      <trkpt lat="43.42133" lon="6.07452">
        <ele>255.19999694824</ele>
        <time>2017-02-08T13:15:56Z</time>
      </trkpt>
      <trkpt lat="43.42139" lon="6.07429">
        <ele>254.39999389648</ele>
        <time>2017-02-08T13:15:59Z</time>
      </trkpt>
      <trkpt lat="43.4214" lon="6.07422">
        <ele>254</ele>
        <time>2017-02-08T13:16:00Z</time>
      </trkpt>
      <trkpt lat="43.42146" lon="6.07381">
        <ele>253.80000305176</ele>
        <time>2017-02-08T13:16:06Z</time>
      </trkpt>
      <trkpt lat="43.42148" lon="6.07361">
        <ele>253.80000305176</ele>
        <time>2017-02-08T13:16:09Z</time>
      </trkpt>
      <trkpt lat="43.42152" lon="6.07322">
        <ele>253.39999389648</ele>
        <time>2017-02-08T13:16:15Z</time>
      </trkpt>
      <trkpt lat="43.42155" lon="6.07302">
        <ele>253.39999389648</ele>
        <time>2017-02-08T13:16:18Z</time>
      </trkpt>
      <trkpt lat="43.42156" lon="6.07296">
        <ele>253.39999389648</ele>
        <time>2017-02-08T13:16:19Z</time>
      </trkpt>
      <trkpt lat="43.42164" lon="6.07256">
        <ele>254.19999694824</ele>
        <time>2017-02-08T13:16:26Z</time>
      </trkpt>
      <trkpt lat="43.4217" lon="6.07225">
        <ele>255.19999694824</ele>
        <time>2017-02-08T13:16:32Z</time>
      </trkpt>
      <trkpt lat="43.42174" lon="6.07191">
        <ele>255.80000305176</ele>
        <time>2017-02-08T13:16:39Z</time>
      </trkpt>
      <trkpt lat="43.42176" lon="6.07167">
        <ele>255</ele>
        <time>2017-02-08T13:16:43Z</time>
      </trkpt>
      <trkpt lat="43.42177" lon="6.07154">
        <ele>254.19999694824</ele>
        <time>2017-02-08T13:16:45Z</time>
      </trkpt>
      <trkpt lat="43.42175" lon="6.07141">
        <ele>253.39999389648</ele>
        <time>2017-02-08T13:16:47Z</time>
      </trkpt>
      <trkpt lat="43.42171" lon="6.0713">
        <ele>252.80000305176</ele>
        <time>2017-02-08T13:16:49Z</time>
      </trkpt>
      <trkpt lat="43.42165" lon="6.07098">
        <ele>252.39999389648</ele>
        <time>2017-02-08T13:16:54Z</time>
      </trkpt>
      <trkpt lat="43.4216" lon="6.07068">
        <ele>253.19999694824</ele>
        <time>2017-02-08T13:16:59Z</time>
      </trkpt>
      <trkpt lat="43.42165" lon="6.07063">
        <ele>253.80000305176</ele>
        <time>2017-02-08T13:17:01Z</time>
      </trkpt>
      <trkpt lat="43.42177" lon="6.07061">
        <ele>254.39999389648</ele>
        <time>2017-02-08T13:17:04Z</time>
      </trkpt>
      <trkpt lat="43.42185" lon="6.0706">
        <ele>255</ele>
        <time>2017-02-08T13:17:07Z</time>
      </trkpt>
      <trkpt lat="43.42192" lon="6.0706">
        <ele>255.19999694824</ele>
        <time>2017-02-08T13:17:09Z</time>
      </trkpt>
      <trkpt lat="43.42223" lon="6.07068">
        <ele>256.20001220703</ele>
        <time>2017-02-08T13:17:16Z</time>
      </trkpt>
      <trkpt lat="43.42234" lon="6.07071">
        <ele>256.60000610352</ele>
        <time>2017-02-08T13:17:19Z</time>
      </trkpt>
      <trkpt lat="43.42239" lon="6.07076">
        <ele>256.60000610352</ele>
        <time>2017-02-08T13:17:21Z</time>
      </trkpt>
      <trkpt lat="43.42241" lon="6.07085">
        <ele>256.20001220703</ele>
        <time>2017-02-08T13:17:23Z</time>
      </trkpt>
      <trkpt lat="43.42237" lon="6.07129">
        <ele>255.19999694824</ele>
        <time>2017-02-08T13:17:29Z</time>
      </trkpt>
      <trkpt lat="43.42236" lon="6.07137">
        <ele>255</ele>
        <time>2017-02-08T13:17:30Z</time>
      </trkpt>
      <trkpt lat="43.42223" lon="6.07207">
        <ele>254.80000305176</ele>
        <time>2017-02-08T13:17:39Z</time>
      </trkpt>
      <trkpt lat="43.42219" lon="6.07234">
        <ele>255.39999389648</ele>
        <time>2017-02-08T13:17:44Z</time>
      </trkpt>
      <trkpt lat="43.42213" lon="6.07274">
        <ele>255.39999389648</ele>
        <time>2017-02-08T13:17:49Z</time>
      </trkpt>
      <trkpt lat="43.422" lon="6.0737">
        <ele>255.39999389648</ele>
        <time>2017-02-08T13:18:01Z</time>
      </trkpt>
      <trkpt lat="43.42191" lon="6.07434">
        <ele>255.19999694824</ele>
        <time>2017-02-08T13:18:09Z</time>
      </trkpt>
      <trkpt lat="43.42188" lon="6.07454">
        <ele>255.19999694824</ele>
        <time>2017-02-08T13:18:11Z</time>
      </trkpt>
      <trkpt lat="43.42177" lon="6.075">
        <ele>255.80000305176</ele>
        <time>2017-02-08T13:18:19Z</time>
      </trkpt>
      <trkpt lat="43.42171" lon="6.07525">
        <ele>256</ele>
        <time>2017-02-08T13:18:23Z</time>
      </trkpt>
      <trkpt lat="43.4217" lon="6.07532">
        <ele>256.20001220703</ele>
        <time>2017-02-08T13:18:24Z</time>
      </trkpt>
      <trkpt lat="43.42166" lon="6.07557">
        <ele>256.79998779297</ele>
        <time>2017-02-08T13:18:28Z</time>
      </trkpt>
      <trkpt lat="43.42156" lon="6.0761">
        <ele>257.20001220703</ele>
        <time>2017-02-08T13:18:36Z</time>
      </trkpt>
      <trkpt lat="43.42146" lon="6.07646">
        <ele>258.39999389648</ele>
        <time>2017-02-08T13:18:42Z</time>
      </trkpt>
      <trkpt lat="43.42139" lon="6.07669">
        <ele>259</ele>
        <time>2017-02-08T13:18:46Z</time>
      </trkpt>
      <trkpt lat="43.42134" lon="6.07685">
        <ele>259.79998779297</ele>
        <time>2017-02-08T13:18:49Z</time>
      </trkpt>
      <trkpt lat="43.4213" lon="6.077">
        <ele>260.39999389648</ele>
        <time>2017-02-08T13:18:52Z</time>
      </trkpt>
      <trkpt lat="43.42128" lon="6.07705">
        <ele>260.60000610352</ele>
        <time>2017-02-08T13:18:53Z</time>
      </trkpt>
      <trkpt lat="43.42124" lon="6.0772">
        <ele>261.79998779297</ele>
        <time>2017-02-08T13:18:56Z</time>
      </trkpt>
      <trkpt lat="43.4212" lon="6.07733">
        <ele>262.60000610352</ele>
        <time>2017-02-08T13:18:59Z</time>
      </trkpt>
      <trkpt lat="43.42113" lon="6.07756">
        <ele>264</ele>
        <time>2017-02-08T13:19:06Z</time>
      </trkpt>
      <trkpt lat="43.4211" lon="6.07765">
        <ele>264.39999389648</ele>
        <time>2017-02-08T13:19:09Z</time>
      </trkpt>
      <trkpt lat="43.42107" lon="6.07777">
        <ele>265</ele>
        <time>2017-02-08T13:19:13Z</time>
      </trkpt>
      <trkpt lat="43.42102" lon="6.07794">
        <ele>265.79998779297</ele>
        <time>2017-02-08T13:19:19Z</time>
      </trkpt>
      <trkpt lat="43.42096" lon="6.07818">
        <ele>267.20001220703</ele>
        <time>2017-02-08T13:19:27Z</time>
      </trkpt>
      <trkpt lat="43.42094" lon="6.07823">
        <ele>267.60000610352</ele>
        <time>2017-02-08T13:19:29Z</time>
      </trkpt>
      <trkpt lat="43.42091" lon="6.07837">
        <ele>268.39999389648</ele>
        <time>2017-02-08T13:19:35Z</time>
      </trkpt>
      <trkpt lat="43.4209" lon="6.07843">
        <ele>269.20001220703</ele>
        <time>2017-02-08T13:19:39Z</time>
      </trkpt>
      <trkpt lat="43.42089" lon="6.07846">
        <ele>269.20001220703</ele>
        <time>2017-02-08T13:19:42Z</time>
      </trkpt>
      <trkpt lat="43.42089" lon="6.07849">
        <ele>269.39999389648</ele>
        <time>2017-02-08T13:19:46Z</time>
      </trkpt>
      <trkpt lat="43.42089" lon="6.0785">
        <ele>269.60000610352</ele>
        <time>2017-02-08T13:19:49Z</time>
      </trkpt>
      <trkpt lat="43.42089" lon="6.07852">
        <ele>269.60000610352</ele>
        <time>2017-02-08T13:19:55Z</time>
      </trkpt>
      <trkpt lat="43.42089" lon="6.07852">
        <ele>269.79998779297</ele>
        <time>2017-02-08T13:19:57Z</time>
      </trkpt>
      <trkpt lat="43.42089" lon="6.07852">
        <ele>269.79998779297</ele>
        <time>2017-02-08T13:19:59Z</time>
      </trkpt>
      <trkpt lat="43.42089" lon="6.07852">
        <ele>269.79998779297</ele>
        <time>2017-02-08T13:20:02Z</time>
      </trkpt>
      <trkpt lat="43.42089" lon="6.07852">
        <ele>269.79998779297</ele>
        <time>2017-02-08T13:20:09Z</time>
      </trkpt>
      <trkpt lat="43.42089" lon="6.07853">
        <ele>269.60000610352</ele>
        <time>2017-02-08T13:20:23Z</time>
      </trkpt>
      <trkpt lat="43.42089" lon="6.07853">
        <ele>269.60000610352</ele>
        <time>2017-02-08T13:20:26Z</time>
      </trkpt>
      <trkpt lat="43.42089" lon="6.07854">
        <ele>269.39999389648</ele>
        <time>2017-02-08T13:20:28Z</time>
      </trkpt>
      <trkpt lat="43.42089" lon="6.07856">
        <ele>269.39999389648</ele>
        <time>2017-02-08T13:20:29Z</time>
      </trkpt>
      <trkpt lat="43.42089" lon="6.07857">
        <ele>269.39999389648</ele>
        <time>2017-02-08T13:20:30Z</time>
      </trkpt>
      <trkpt lat="43.421" lon="6.07884">
        <ele>268.60000610352</ele>
        <time>2017-02-08T13:20:39Z</time>
      </trkpt>
      <trkpt lat="43.42104" lon="6.07887">
        <ele>268.20001220703</ele>
        <time>2017-02-08T13:20:40Z</time>
      </trkpt>
      <trkpt lat="43.42113" lon="6.07888">
        <ele>267</ele>
        <time>2017-02-08T13:20:42Z</time>
      </trkpt>
      <trkpt lat="43.42124" lon="6.07887">
        <ele>266</ele>
        <time>2017-02-08T13:20:44Z</time>
      </trkpt>
      <trkpt lat="43.42144" lon="6.07885">
        <ele>264.20001220703</ele>
        <time>2017-02-08T13:20:47Z</time>
      </trkpt>
      <trkpt lat="43.4215" lon="6.07885">
        <ele>263.20001220703</ele>
        <time>2017-02-08T13:20:48Z</time>
      </trkpt>
      <trkpt lat="43.42157" lon="6.07884">
        <ele>262.20001220703</ele>
        <time>2017-02-08T13:20:49Z</time>
      </trkpt>
      <trkpt lat="43.42163" lon="6.07883">
        <ele>261.60000610352</ele>
        <time>2017-02-08T13:20:50Z</time>
      </trkpt>
      <trkpt lat="43.42183" lon="6.0788">
        <ele>260.60000610352</ele>
        <time>2017-02-08T13:20:53Z</time>
      </trkpt>
      <trkpt lat="43.42195" lon="6.07881">
        <ele>260.60000610352</ele>
        <time>2017-02-08T13:20:55Z</time>
      </trkpt>
      <trkpt lat="43.42214" lon="6.07887">
        <ele>261</ele>
        <time>2017-02-08T13:20:59Z</time>
      </trkpt>
      <trkpt lat="43.42226" lon="6.07892">
        <ele>262.60000610352</ele>
        <time>2017-02-08T13:21:02Z</time>
      </trkpt>
      <trkpt lat="43.42229" lon="6.07895">
        <ele>263</ele>
        <time>2017-02-08T13:21:03Z</time>
      </trkpt>
      <trkpt lat="43.42231" lon="6.07899">
        <ele>263.39999389648</ele>
        <time>2017-02-08T13:21:04Z</time>
      </trkpt>
      <trkpt lat="43.42233" lon="6.07904">
        <ele>263.60000610352</ele>
        <time>2017-02-08T13:21:05Z</time>
      </trkpt>
      <trkpt lat="43.42237" lon="6.07913">
        <ele>264</ele>
        <time>2017-02-08T13:21:07Z</time>
      </trkpt>
      <trkpt lat="43.4224" lon="6.07929">
        <ele>264</ele>
        <time>2017-02-08T13:21:10Z</time>
      </trkpt>
      <trkpt lat="43.42246" lon="6.07957">
        <ele>263.79998779297</ele>
        <time>2017-02-08T13:21:15Z</time>
      </trkpt>
      <trkpt lat="43.42255" lon="6.07968">
        <ele>262.60000610352</ele>
        <time>2017-02-08T13:21:18Z</time>
      </trkpt>
      <trkpt lat="43.42258" lon="6.07968">
        <ele>262.20001220703</ele>
        <time>2017-02-08T13:21:19Z</time>
      </trkpt>
      <trkpt lat="43.4227" lon="6.07964">
        <ele>261.79998779297</ele>
        <time>2017-02-08T13:21:22Z</time>
      </trkpt>
      <trkpt lat="43.42294" lon="6.07968">
        <ele>263</ele>
        <time>2017-02-08T13:21:29Z</time>
      </trkpt>
      <trkpt lat="43.42309" lon="6.07988">
        <ele>262.79998779297</ele>
        <time>2017-02-08T13:21:34Z</time>
      </trkpt>
      <trkpt lat="43.42319" lon="6.07999">
        <ele>263.79998779297</ele>
        <time>2017-02-08T13:21:38Z</time>
      </trkpt>
      <trkpt lat="43.42321" lon="6.08001">
        <ele>264</ele>
        <time>2017-02-08T13:21:39Z</time>
      </trkpt>
      <trkpt lat="43.4233" lon="6.08001">
        <ele>264.79998779297</ele>
        <time>2017-02-08T13:21:43Z</time>
      </trkpt>
      <trkpt lat="43.42336" lon="6.07991">
        <ele>266</ele>
        <time>2017-02-08T13:21:48Z</time>
      </trkpt>
      <trkpt lat="43.42337" lon="6.07988">
        <ele>266.20001220703</ele>
        <time>2017-02-08T13:21:49Z</time>
      </trkpt>
      <trkpt lat="43.42341" lon="6.0798">
        <ele>267</ele>
        <time>2017-02-08T13:21:52Z</time>
      </trkpt>
      <trkpt lat="43.42342" lon="6.07978">
        <ele>267.39999389648</ele>
        <time>2017-02-08T13:21:53Z</time>
      </trkpt>
      <trkpt lat="43.42345" lon="6.07972">
        <ele>268.60000610352</ele>
        <time>2017-02-08T13:21:56Z</time>
      </trkpt>
      <trkpt lat="43.42348" lon="6.07969">
        <ele>269</ele>
        <time>2017-02-08T13:21:58Z</time>
      </trkpt>
      <trkpt lat="43.42356" lon="6.07959">
        <ele>269</ele>
        <time>2017-02-08T13:22:03Z</time>
      </trkpt>
      <trkpt lat="43.42362" lon="6.07952">
        <ele>269.39999389648</ele>
        <time>2017-02-08T13:22:07Z</time>
      </trkpt>
      <trkpt lat="43.42365" lon="6.07948">
        <ele>269.39999389648</ele>
        <time>2017-02-08T13:22:09Z</time>
      </trkpt>
      <trkpt lat="43.42381" lon="6.07927">
        <ele>269.39999389648</ele>
        <time>2017-02-08T13:22:19Z</time>
      </trkpt>
      <trkpt lat="43.42394" lon="6.07915">
        <ele>269.60000610352</ele>
        <time>2017-02-08T13:22:26Z</time>
      </trkpt>
      <trkpt lat="43.42401" lon="6.07911">
        <ele>269.60000610352</ele>
        <time>2017-02-08T13:22:29Z</time>
      </trkpt>
      <trkpt lat="43.42422" lon="6.07908">
        <ele>269.20001220703</ele>
        <time>2017-02-08T13:22:37Z</time>
      </trkpt>
      <trkpt lat="43.42427" lon="6.07909">
        <ele>269.20001220703</ele>
        <time>2017-02-08T13:22:39Z</time>
      </trkpt>
      <trkpt lat="43.42441" lon="6.07912">
        <ele>269.20001220703</ele>
        <time>2017-02-08T13:22:44Z</time>
      </trkpt>
      <trkpt lat="43.42451" lon="6.07915">
        <ele>269.39999389648</ele>
        <time>2017-02-08T13:22:48Z</time>
      </trkpt>
      <trkpt lat="43.42454" lon="6.07914">
        <ele>269.39999389648</ele>
        <time>2017-02-08T13:22:49Z</time>
      </trkpt>
      <trkpt lat="43.42463" lon="6.0791">
        <ele>269.60000610352</ele>
        <time>2017-02-08T13:22:53Z</time>
      </trkpt>
      <trkpt lat="43.42465" lon="6.07908">
        <ele>269.79998779297</ele>
        <time>2017-02-08T13:22:55Z</time>
      </trkpt>
      <trkpt lat="43.42467" lon="6.07907">
        <ele>270</ele>
        <time>2017-02-08T13:22:59Z</time>
      </trkpt>
      <trkpt lat="43.42467" lon="6.07908">
        <ele>270</ele>
        <time>2017-02-08T13:23:05Z</time>
      </trkpt>
      <trkpt lat="43.42467" lon="6.07908">
        <ele>270.20001220703</ele>
        <time>2017-02-08T13:23:09Z</time>
      </trkpt>
      <trkpt lat="43.42467" lon="6.07908">
        <ele>270</ele>
        <time>2017-02-08T13:23:16Z</time>
      </trkpt>
      <trkpt lat="43.42467" lon="6.07908">
        <ele>270</ele>
        <time>2017-02-08T13:23:25Z</time>
      </trkpt>
      <trkpt lat="43.42467" lon="6.07908">
        <ele>270</ele>
        <time>2017-02-08T13:23:29Z</time>
      </trkpt>
      <trkpt lat="43.42467" lon="6.07908">
        <ele>270</ele>
        <time>2017-02-08T13:23:32Z</time>
      </trkpt>
      <trkpt lat="43.42469" lon="6.07907">
        <ele>270.20001220703</ele>
        <time>2017-02-08T13:23:39Z</time>
      </trkpt>
      <trkpt lat="43.42471" lon="6.07906">
        <ele>270.20001220703</ele>
        <time>2017-02-08T13:23:41Z</time>
      </trkpt>
      <trkpt lat="43.42472" lon="6.07904">
        <ele>270.20001220703</ele>
        <time>2017-02-08T13:23:42Z</time>
      </trkpt>
      <trkpt lat="43.42473" lon="6.07903">
        <ele>270.20001220703</ele>
        <time>2017-02-08T13:23:43Z</time>
      </trkpt>
      <trkpt lat="43.42474" lon="6.079">
        <ele>270.39999389648</ele>
        <time>2017-02-08T13:23:44Z</time>
      </trkpt>
      <trkpt lat="43.42475" lon="6.07898">
        <ele>270.60000610352</ele>
        <time>2017-02-08T13:23:45Z</time>
      </trkpt>
      <trkpt lat="43.42477" lon="6.07895">
        <ele>271.20001220703</ele>
        <time>2017-02-08T13:23:47Z</time>
      </trkpt>
      <trkpt lat="43.42479" lon="6.07892">
        <ele>272</ele>
        <time>2017-02-08T13:23:49Z</time>
      </trkpt>
      <trkpt lat="43.4248" lon="6.07891">
        <ele>272.39999389648</ele>
        <time>2017-02-08T13:23:50Z</time>
      </trkpt>
      <trkpt lat="43.42483" lon="6.0789">
        <ele>273</ele>
        <time>2017-02-08T13:23:52Z</time>
      </trkpt>
      <trkpt lat="43.42484" lon="6.07889">
        <ele>273</ele>
        <time>2017-02-08T13:23:53Z</time>
      </trkpt>
      <trkpt lat="43.42493" lon="6.07886">
        <ele>273.39999389648</ele>
        <time>2017-02-08T13:23:59Z</time>
      </trkpt>
      <trkpt lat="43.42502" lon="6.07883">
        <ele>274.20001220703</ele>
        <time>2017-02-08T13:24:05Z</time>
      </trkpt>
      <trkpt lat="43.42508" lon="6.07881">
        <ele>274.79998779297</ele>
        <time>2017-02-08T13:24:09Z</time>
      </trkpt>
      <trkpt lat="43.42511" lon="6.0788">
        <ele>275.20001220703</ele>
        <time>2017-02-08T13:24:11Z</time>
      </trkpt>
      <trkpt lat="43.42517" lon="6.07879">
        <ele>276.20001220703</ele>
        <time>2017-02-08T13:24:16Z</time>
      </trkpt>
      <trkpt lat="43.42518" lon="6.07878">
        <ele>276.20001220703</ele>
        <time>2017-02-08T13:24:17Z</time>
      </trkpt>
      <trkpt lat="43.42521" lon="6.07878">
        <ele>276.60000610352</ele>
        <time>2017-02-08T13:24:19Z</time>
      </trkpt>
      <trkpt lat="43.42533" lon="6.07875">
        <ele>278.60000610352</ele>
        <time>2017-02-08T13:24:28Z</time>
      </trkpt>
      <trkpt lat="43.42539" lon="6.07873">
        <ele>279.60000610352</ele>
        <time>2017-02-08T13:24:32Z</time>
      </trkpt>
      <trkpt lat="43.42551" lon="6.07871">
        <ele>282</ele>
        <time>2017-02-08T13:24:42Z</time>
      </trkpt>
      <trkpt lat="43.42557" lon="6.0787">
        <ele>283</ele>
        <time>2017-02-08T13:24:47Z</time>
      </trkpt>
      <trkpt lat="43.42561" lon="6.0787">
        <ele>284.20001220703</ele>
        <time>2017-02-08T13:24:51Z</time>
      </trkpt>
      <trkpt lat="43.42571" lon="6.0787">
        <ele>284.79998779297</ele>
        <time>2017-02-08T13:24:59Z</time>
      </trkpt>
      <trkpt lat="43.42576" lon="6.07869">
        <ele>285</ele>
        <time>2017-02-08T13:25:03Z</time>
      </trkpt>
      <trkpt lat="43.4258" lon="6.07869">
        <ele>285.20001220703</ele>
        <time>2017-02-08T13:25:06Z</time>
      </trkpt>
      <trkpt lat="43.42583" lon="6.0787">
        <ele>285.39999389648</ele>
        <time>2017-02-08T13:25:09Z</time>
      </trkpt>
      <trkpt lat="43.42594" lon="6.07878">
        <ele>286.20001220703</ele>
        <time>2017-02-08T13:25:21Z</time>
      </trkpt>
      <trkpt lat="43.42601" lon="6.07883">
        <ele>287.20001220703</ele>
        <time>2017-02-08T13:25:29Z</time>
      </trkpt>
      <trkpt lat="43.42604" lon="6.07885">
        <ele>288.20001220703</ele>
        <time>2017-02-08T13:25:35Z</time>
      </trkpt>
      <trkpt lat="43.42605" lon="6.07885">
        <ele>288.39999389648</ele>
        <time>2017-02-08T13:25:38Z</time>
      </trkpt>
      <trkpt lat="43.42604" lon="6.07886">
        <ele>288.79998779297</ele>
        <time>2017-02-08T13:25:45Z</time>
      </trkpt>
      <trkpt lat="43.42605" lon="6.07886">
        <ele>289.20001220703</ele>
        <time>2017-02-08T13:25:49Z</time>
      </trkpt>
      <trkpt lat="43.42606" lon="6.07886">
        <ele>289.39999389648</ele>
        <time>2017-02-08T13:25:52Z</time>
      </trkpt>
      <trkpt lat="43.42608" lon="6.07889">
        <ele>289.60000610352</ele>
        <time>2017-02-08T13:25:59Z</time>
      </trkpt>
      <trkpt lat="43.42609" lon="6.07892">
        <ele>290.39999389648</ele>
        <time>2017-02-08T13:26:09Z</time>
      </trkpt>
      <trkpt lat="43.42609" lon="6.07893">
        <ele>290.39999389648</ele>
        <time>2017-02-08T13:26:15Z</time>
      </trkpt>
      <trkpt lat="43.42611" lon="6.07894">
        <ele>290.60000610352</ele>
        <time>2017-02-08T13:26:19Z</time>
      </trkpt>
      <trkpt lat="43.42613" lon="6.07895">
        <ele>290.60000610352</ele>
        <time>2017-02-08T13:26:21Z</time>
      </trkpt>
      <trkpt lat="43.42615" lon="6.07896">
        <ele>290.79998779297</ele>
        <time>2017-02-08T13:26:23Z</time>
      </trkpt>
      <trkpt lat="43.42616" lon="6.07896">
        <ele>291.20001220703</ele>
        <time>2017-02-08T13:26:25Z</time>
      </trkpt>
      <trkpt lat="43.42618" lon="6.07896">
        <ele>291.60000610352</ele>
        <time>2017-02-08T13:26:29Z</time>
      </trkpt>
      <trkpt lat="43.42622" lon="6.07897">
        <ele>292.60000610352</ele>
        <time>2017-02-08T13:26:34Z</time>
      </trkpt>
      <trkpt lat="43.42625" lon="6.07898">
        <ele>293.20001220703</ele>
        <time>2017-02-08T13:26:39Z</time>
      </trkpt>
      <trkpt lat="43.42628" lon="6.079">
        <ele>293.60000610352</ele>
        <time>2017-02-08T13:26:45Z</time>
      </trkpt>
      <trkpt lat="43.42628" lon="6.079">
        <ele>293.60000610352</ele>
        <time>2017-02-08T13:26:46Z</time>
      </trkpt>
      <trkpt lat="43.42629" lon="6.07901">
        <ele>293.79998779297</ele>
        <time>2017-02-08T13:26:49Z</time>
      </trkpt>
      <trkpt lat="43.42631" lon="6.07904">
        <ele>294.60000610352</ele>
        <time>2017-02-08T13:26:55Z</time>
      </trkpt>
      <trkpt lat="43.42633" lon="6.07907">
        <ele>295</ele>
        <time>2017-02-08T13:27:03Z</time>
      </trkpt>
      <trkpt lat="43.42633" lon="6.07907">
        <ele>294.79998779297</ele>
        <time>2017-02-08T13:27:08Z</time>
      </trkpt>
      <trkpt lat="43.42632" lon="6.07907">
        <ele>294.79998779297</ele>
        <time>2017-02-08T13:27:09Z</time>
      </trkpt>
      <trkpt lat="43.42631" lon="6.07911">
        <ele>295</ele>
        <time>2017-02-08T13:27:19Z</time>
      </trkpt>
      <trkpt lat="43.42635" lon="6.07921">
        <ele>295.20001220703</ele>
        <time>2017-02-08T13:27:28Z</time>
      </trkpt>
      <trkpt lat="43.42636" lon="6.07922">
        <ele>295.20001220703</ele>
        <time>2017-02-08T13:27:29Z</time>
      </trkpt>
      <trkpt lat="43.4264" lon="6.07927">
        <ele>295.79998779297</ele>
        <time>2017-02-08T13:27:33Z</time>
      </trkpt>
      <trkpt lat="43.42648" lon="6.07933">
        <ele>296.20001220703</ele>
        <time>2017-02-08T13:27:39Z</time>
      </trkpt>
      <trkpt lat="43.42655" lon="6.07938">
        <ele>296.79998779297</ele>
        <time>2017-02-08T13:27:44Z</time>
      </trkpt>
      <trkpt lat="43.42661" lon="6.07942">
        <ele>297.39999389648</ele>
        <time>2017-02-08T13:27:49Z</time>
      </trkpt>
      <trkpt lat="43.42667" lon="6.07945">
        <ele>297.79998779297</ele>
        <time>2017-02-08T13:27:53Z</time>
      </trkpt>
      <trkpt lat="43.42674" lon="6.07946">
        <ele>298.79998779297</ele>
        <time>2017-02-08T13:27:58Z</time>
      </trkpt>
      <trkpt lat="43.42676" lon="6.07946">
        <ele>299</ele>
        <time>2017-02-08T13:27:59Z</time>
      </trkpt>
      <trkpt lat="43.42683" lon="6.07946">
        <ele>299.79998779297</ele>
        <time>2017-02-08T13:28:05Z</time>
      </trkpt>
      <trkpt lat="43.42689" lon="6.07945">
        <ele>300.39999389648</ele>
        <time>2017-02-08T13:28:09Z</time>
      </trkpt>
      <trkpt lat="43.42696" lon="6.07946">
        <ele>301</ele>
        <time>2017-02-08T13:28:14Z</time>
      </trkpt>
      <trkpt lat="43.42703" lon="6.07946">
        <ele>301.20001220703</ele>
        <time>2017-02-08T13:28:19Z</time>
      </trkpt>
      <trkpt lat="43.4271" lon="6.07946">
        <ele>302.20001220703</ele>
        <time>2017-02-08T13:28:24Z</time>
      </trkpt>
      <trkpt lat="43.42718" lon="6.07945">
        <ele>303</ele>
        <time>2017-02-08T13:28:29Z</time>
      </trkpt>
      <trkpt lat="43.42725" lon="6.07944">
        <ele>303.20001220703</ele>
        <time>2017-02-08T13:28:34Z</time>
      </trkpt>
      <trkpt lat="43.42732" lon="6.07939">
        <ele>303.60000610352</ele>
        <time>2017-02-08T13:28:39Z</time>
      </trkpt>
      <trkpt lat="43.42739" lon="6.07935">
        <ele>304.20001220703</ele>
        <time>2017-02-08T13:28:44Z</time>
      </trkpt>
      <trkpt lat="43.42745" lon="6.0793">
        <ele>305</ele>
        <time>2017-02-08T13:28:49Z</time>
      </trkpt>
      <trkpt lat="43.4275" lon="6.07925">
        <ele>305.20001220703</ele>
        <time>2017-02-08T13:28:53Z</time>
      </trkpt>
      <trkpt lat="43.42756" lon="6.07916">
        <ele>305.79998779297</ele>
        <time>2017-02-08T13:28:59Z</time>
      </trkpt>
      <trkpt lat="43.42763" lon="6.07907">
        <ele>306.20001220703</ele>
        <time>2017-02-08T13:29:05Z</time>
      </trkpt>
      <trkpt lat="43.42767" lon="6.079">
        <ele>306.60000610352</ele>
        <time>2017-02-08T13:29:09Z</time>
      </trkpt>
      <trkpt lat="43.42775" lon="6.07887">
        <ele>307.39999389648</ele>
        <time>2017-02-08T13:29:17Z</time>
      </trkpt>
      <trkpt lat="43.42776" lon="6.07884">
        <ele>308</ele>
        <time>2017-02-08T13:29:19Z</time>
      </trkpt>
      <trkpt lat="43.42784" lon="6.07871">
        <ele>309.39999389648</ele>
        <time>2017-02-08T13:29:28Z</time>
      </trkpt>
      <trkpt lat="43.42794" lon="6.07857">
        <ele>310.60000610352</ele>
        <time>2017-02-08T13:29:39Z</time>
      </trkpt>
      <trkpt lat="43.42809" lon="6.07854">
        <ele>311</ele>
        <time>2017-02-08T13:29:49Z</time>
      </trkpt>
      <trkpt lat="43.42815" lon="6.07851">
        <ele>311.60000610352</ele>
        <time>2017-02-08T13:29:54Z</time>
      </trkpt>
      <trkpt lat="43.42823" lon="6.07852">
        <ele>312</ele>
        <time>2017-02-08T13:29:59Z</time>
      </trkpt>
      <trkpt lat="43.42837" lon="6.07849">
        <ele>312.79998779297</ele>
        <time>2017-02-08T13:30:08Z</time>
      </trkpt>
      <trkpt lat="43.42838" lon="6.07848">
        <ele>313</ele>
        <time>2017-02-08T13:30:09Z</time>
      </trkpt>
      <trkpt lat="43.42843" lon="6.07844">
        <ele>313.79998779297</ele>
        <time>2017-02-08T13:30:13Z</time>
      </trkpt>
      <trkpt lat="43.42849" lon="6.07836">
        <ele>314.79998779297</ele>
        <time>2017-02-08T13:30:19Z</time>
      </trkpt>
      <trkpt lat="43.42856" lon="6.07823">
        <ele>316</ele>
        <time>2017-02-08T13:30:27Z</time>
      </trkpt>
      <trkpt lat="43.42861" lon="6.07817">
        <ele>316.39999389648</ele>
        <time>2017-02-08T13:30:32Z</time>
      </trkpt>
      <trkpt lat="43.42866" lon="6.07809">
        <ele>317.20001220703</ele>
        <time>2017-02-08T13:30:38Z</time>
      </trkpt>
      <trkpt lat="43.42868" lon="6.07804">
        <ele>318.20001220703</ele>
        <time>2017-02-08T13:30:41Z</time>
      </trkpt>
      <trkpt lat="43.4287" lon="6.07789">
        <ele>319.20001220703</ele>
        <time>2017-02-08T13:30:48Z</time>
      </trkpt>
      <trkpt lat="43.4287" lon="6.07787">
        <ele>319.20001220703</ele>
        <time>2017-02-08T13:30:49Z</time>
      </trkpt>
      <trkpt lat="43.42874" lon="6.07766">
        <ele>320</ele>
        <time>2017-02-08T13:30:59Z</time>
      </trkpt>
      <trkpt lat="43.42875" lon="6.07761">
        <ele>320.39999389648</ele>
        <time>2017-02-08T13:31:02Z</time>
      </trkpt>
      <trkpt lat="43.4288" lon="6.07751">
        <ele>321.60000610352</ele>
        <time>2017-02-08T13:31:08Z</time>
      </trkpt>
      <trkpt lat="43.42881" lon="6.07749">
        <ele>321.79998779297</ele>
        <time>2017-02-08T13:31:09Z</time>
      </trkpt>
      <trkpt lat="43.42887" lon="6.07745">
        <ele>322.39999389648</ele>
        <time>2017-02-08T13:31:16Z</time>
      </trkpt>
      <trkpt lat="43.42888" lon="6.07744">
        <ele>322.39999389648</ele>
        <time>2017-02-08T13:31:18Z</time>
      </trkpt>
      <trkpt lat="43.42892" lon="6.07747">
        <ele>322.60000610352</ele>
        <time>2017-02-08T13:31:23Z</time>
      </trkpt>
      <trkpt lat="43.42894" lon="6.07747">
        <ele>322.60000610352</ele>
        <time>2017-02-08T13:31:24Z</time>
      </trkpt>
      <trkpt lat="43.42896" lon="6.07746">
        <ele>322.79998779297</ele>
        <time>2017-02-08T13:31:29Z</time>
      </trkpt>
      <trkpt lat="43.42896" lon="6.07746">
        <ele>323</ele>
        <time>2017-02-08T13:31:32Z</time>
      </trkpt>
      <trkpt lat="43.42896" lon="6.07746">
        <ele>323</ele>
        <time>2017-02-08T13:31:35Z</time>
      </trkpt>
      <trkpt lat="43.42896" lon="6.07745">
        <ele>323.20001220703</ele>
        <time>2017-02-08T13:31:39Z</time>
      </trkpt>
      <trkpt lat="43.42896" lon="6.07746">
        <ele>323.20001220703</ele>
        <time>2017-02-08T13:31:47Z</time>
      </trkpt>
      <trkpt lat="43.42896" lon="6.07746">
        <ele>323.20001220703</ele>
        <time>2017-02-08T13:31:49Z</time>
      </trkpt>
      <trkpt lat="43.42896" lon="6.07746">
        <ele>323</ele>
        <time>2017-02-08T13:31:59Z</time>
      </trkpt>
      <trkpt lat="43.42896" lon="6.07746">
        <ele>323</ele>
        <time>2017-02-08T13:32:05Z</time>
      </trkpt>
      <trkpt lat="43.42896" lon="6.07746">
        <ele>323</ele>
        <time>2017-02-08T13:32:19Z</time>
      </trkpt>
      <trkpt lat="43.42896" lon="6.07746">
        <ele>322.79998779297</ele>
        <time>2017-02-08T13:32:29Z</time>
      </trkpt>
      <trkpt lat="43.42897" lon="6.07745">
        <ele>323</ele>
        <time>2017-02-08T13:32:35Z</time>
      </trkpt>
      <trkpt lat="43.429" lon="6.07747">
        <ele>322.79998779297</ele>
        <time>2017-02-08T13:32:38Z</time>
      </trkpt>
      <trkpt lat="43.42902" lon="6.07748">
        <ele>322.60000610352</ele>
        <time>2017-02-08T13:32:39Z</time>
      </trkpt>
      <trkpt lat="43.42908" lon="6.07769">
        <ele>322.39999389648</ele>
        <time>2017-02-08T13:32:49Z</time>
      </trkpt>
      <trkpt lat="43.42918" lon="6.07809">
        <ele>321.39999389648</ele>
        <time>2017-02-08T13:32:57Z</time>
      </trkpt>
      <trkpt lat="43.42921" lon="6.07824">
        <ele>319.79998779297</ele>
        <time>2017-02-08T13:32:59Z</time>
      </trkpt>
      <trkpt lat="43.42925" lon="6.07838">
        <ele>318.60000610352</ele>
        <time>2017-02-08T13:33:01Z</time>
      </trkpt>
      <trkpt lat="43.42933" lon="6.07873">
        <ele>318.79998779297</ele>
        <time>2017-02-08T13:33:08Z</time>
      </trkpt>
      <trkpt lat="43.42934" lon="6.07878">
        <ele>319</ele>
        <time>2017-02-08T13:33:09Z</time>
      </trkpt>
      <trkpt lat="43.42936" lon="6.07887">
        <ele>319.79998779297</ele>
        <time>2017-02-08T13:33:11Z</time>
      </trkpt>
      <trkpt lat="43.4294" lon="6.07899">
        <ele>320.20001220703</ele>
        <time>2017-02-08T13:33:14Z</time>
      </trkpt>
      <trkpt lat="43.42945" lon="6.07919">
        <ele>320.79998779297</ele>
        <time>2017-02-08T13:33:19Z</time>
      </trkpt>
      <trkpt lat="43.42947" lon="6.07931">
        <ele>321</ele>
        <time>2017-02-08T13:33:22Z</time>
      </trkpt>
      <trkpt lat="43.42955" lon="6.0796">
        <ele>321.39999389648</ele>
        <time>2017-02-08T13:33:29Z</time>
      </trkpt>
      <trkpt lat="43.42966" lon="6.08">
        <ele>321.20001220703</ele>
        <time>2017-02-08T13:33:39Z</time>
      </trkpt>
      <trkpt lat="43.42977" lon="6.08039">
        <ele>321.20001220703</ele>
        <time>2017-02-08T13:33:49Z</time>
      </trkpt>
      <trkpt lat="43.42981" lon="6.08052">
        <ele>322</ele>
        <time>2017-02-08T13:33:54Z</time>
      </trkpt>
      <trkpt lat="43.42984" lon="6.08062">
        <ele>323.20001220703</ele>
        <time>2017-02-08T13:33:59Z</time>
      </trkpt>
      <trkpt lat="43.42985" lon="6.08068">
        <ele>323.60000610352</ele>
        <time>2017-02-08T13:34:02Z</time>
      </trkpt>
      <trkpt lat="43.42987" lon="6.08074">
        <ele>324.39999389648</ele>
        <time>2017-02-08T13:34:05Z</time>
      </trkpt>
      <trkpt lat="43.42989" lon="6.08077">
        <ele>325.60000610352</ele>
        <time>2017-02-08T13:34:07Z</time>
      </trkpt>
      <trkpt lat="43.42989" lon="6.08081">
        <ele>326.20001220703</ele>
        <time>2017-02-08T13:34:09Z</time>
      </trkpt>
      <trkpt lat="43.4299" lon="6.08087">
        <ele>326.79998779297</ele>
        <time>2017-02-08T13:34:12Z</time>
      </trkpt>
      <trkpt lat="43.42992" lon="6.0809">
        <ele>327.20001220703</ele>
        <time>2017-02-08T13:34:14Z</time>
      </trkpt>
      <trkpt lat="43.42992" lon="6.08094">
        <ele>328</ele>
        <time>2017-02-08T13:34:17Z</time>
      </trkpt>
      <trkpt lat="43.42992" lon="6.08094">
        <ele>328.39999389648</ele>
        <time>2017-02-08T13:34:18Z</time>
      </trkpt>
      <trkpt lat="43.42992" lon="6.08094">
        <ele>328.39999389648</ele>
        <time>2017-02-08T13:34:19Z</time>
      </trkpt>
      <trkpt lat="43.42992" lon="6.08093">
        <ele>328.39999389648</ele>
        <time>2017-02-08T13:34:28Z</time>
      </trkpt>
      <trkpt lat="43.42992" lon="6.08093">
        <ele>328.39999389648</ele>
        <time>2017-02-08T13:34:29Z</time>
      </trkpt>
      <trkpt lat="43.42991" lon="6.08095">
        <ele>328.60000610352</ele>
        <time>2017-02-08T13:34:33Z</time>
      </trkpt>
      <trkpt lat="43.42991" lon="6.08095">
        <ele>328.60000610352</ele>
        <time>2017-02-08T13:34:38Z</time>
      </trkpt>
      <trkpt lat="43.42992" lon="6.081">
        <ele>329</ele>
        <time>2017-02-08T13:34:47Z</time>
      </trkpt>
      <trkpt lat="43.42992" lon="6.08102">
        <ele>329</ele>
        <time>2017-02-08T13:34:48Z</time>
      </trkpt>
      <trkpt lat="43.42992" lon="6.08104">
        <ele>329.20001220703</ele>
        <time>2017-02-08T13:34:49Z</time>
      </trkpt>
      <trkpt lat="43.42994" lon="6.0811">
        <ele>330.20001220703</ele>
        <time>2017-02-08T13:34:53Z</time>
      </trkpt>
      <trkpt lat="43.42997" lon="6.08116">
        <ele>331.20001220703</ele>
        <time>2017-02-08T13:34:57Z</time>
      </trkpt>
      <trkpt lat="43.42997" lon="6.08118">
        <ele>331.79998779297</ele>
        <time>2017-02-08T13:34:59Z</time>
      </trkpt>
      <trkpt lat="43.42999" lon="6.08122">
        <ele>332.39999389648</ele>
        <time>2017-02-08T13:35:02Z</time>
      </trkpt>
      <trkpt lat="43.42999" lon="6.08126">
        <ele>333.20001220703</ele>
        <time>2017-02-08T13:35:04Z</time>
      </trkpt>
      <trkpt lat="43.43" lon="6.08129">
        <ele>333.60000610352</ele>
        <time>2017-02-08T13:35:06Z</time>
      </trkpt>
      <trkpt lat="43.43001" lon="6.08132">
        <ele>334</ele>
        <time>2017-02-08T13:35:09Z</time>
      </trkpt>
      <trkpt lat="43.43003" lon="6.08136">
        <ele>334.79998779297</ele>
        <time>2017-02-08T13:35:12Z</time>
      </trkpt>
      <trkpt lat="43.43007" lon="6.08146">
        <ele>336.60000610352</ele>
        <time>2017-02-08T13:35:19Z</time>
      </trkpt>
      <trkpt lat="43.43013" lon="6.08155">
        <ele>338.20001220703</ele>
        <time>2017-02-08T13:35:27Z</time>
      </trkpt>
      <trkpt lat="43.43014" lon="6.08158">
        <ele>338.39999389648</ele>
        <time>2017-02-08T13:35:29Z</time>
      </trkpt>
      <trkpt lat="43.43018" lon="6.08165">
        <ele>339.39999389648</ele>
        <time>2017-02-08T13:35:34Z</time>
      </trkpt>
      <trkpt lat="43.4302" lon="6.08172">
        <ele>340.39999389648</ele>
        <time>2017-02-08T13:35:40Z</time>
      </trkpt>
      <trkpt lat="43.43023" lon="6.08178">
        <ele>341</ele>
        <time>2017-02-08T13:35:46Z</time>
      </trkpt>
      <trkpt lat="43.43023" lon="6.08181">
        <ele>341</ele>
        <time>2017-02-08T13:35:49Z</time>
      </trkpt>
      <trkpt lat="43.43024" lon="6.08185">
        <ele>341.20001220703</ele>
        <time>2017-02-08T13:35:54Z</time>
      </trkpt>
      <trkpt lat="43.43024" lon="6.08186">
        <ele>341.20001220703</ele>
        <time>2017-02-08T13:35:59Z</time>
      </trkpt>
      <trkpt lat="43.43024" lon="6.08186">
        <ele>341.39999389648</ele>
        <time>2017-02-08T13:36:02Z</time>
      </trkpt>
      <trkpt lat="43.43024" lon="6.08186">
        <ele>341.39999389648</ele>
        <time>2017-02-08T13:36:09Z</time>
      </trkpt>
      <trkpt lat="43.43024" lon="6.08186">
        <ele>341.20001220703</ele>
        <time>2017-02-08T13:36:15Z</time>
      </trkpt>
      <trkpt lat="43.43024" lon="6.08186">
        <ele>341.39999389648</ele>
        <time>2017-02-08T13:36:25Z</time>
      </trkpt>
      <trkpt lat="43.43024" lon="6.08186">
        <ele>341.39999389648</ele>
        <time>2017-02-08T13:36:29Z</time>
      </trkpt>
      <trkpt lat="43.43024" lon="6.08186">
        <ele>341.39999389648</ele>
        <time>2017-02-08T13:36:33Z</time>
      </trkpt>
      <trkpt lat="43.43025" lon="6.08186">
        <ele>341.20001220703</ele>
        <time>2017-02-08T13:36:39Z</time>
      </trkpt>
      <trkpt lat="43.43025" lon="6.08186">
        <ele>341.20001220703</ele>
        <time>2017-02-08T13:36:41Z</time>
      </trkpt>
      <trkpt lat="43.43025" lon="6.08186">
        <ele>341.20001220703</ele>
        <time>2017-02-08T13:36:43Z</time>
      </trkpt>
      <trkpt lat="43.43025" lon="6.08185">
        <ele>341</ele>
        <time>2017-02-08T13:36:59Z</time>
      </trkpt>
      <trkpt lat="43.43025" lon="6.08187">
        <ele>341</ele>
        <time>2017-02-08T13:37:09Z</time>
      </trkpt>
      <trkpt lat="43.43025" lon="6.08189">
        <ele>341</ele>
        <time>2017-02-08T13:37:10Z</time>
      </trkpt>
      <trkpt lat="43.43026" lon="6.08191">
        <ele>341.39999389648</ele>
        <time>2017-02-08T13:37:11Z</time>
      </trkpt>
      <trkpt lat="43.43027" lon="6.08197">
        <ele>341</ele>
        <time>2017-02-08T13:37:14Z</time>
      </trkpt>
      <trkpt lat="43.43031" lon="6.0821">
        <ele>340.79998779297</ele>
        <time>2017-02-08T13:37:19Z</time>
      </trkpt>
      <trkpt lat="43.43034" lon="6.08224">
        <ele>340.20001220703</ele>
        <time>2017-02-08T13:37:23Z</time>
      </trkpt>
      <trkpt lat="43.43037" lon="6.08236">
        <ele>339</ele>
        <time>2017-02-08T13:37:27Z</time>
      </trkpt>
      <trkpt lat="43.43038" lon="6.08244">
        <ele>338.60000610352</ele>
        <time>2017-02-08T13:37:29Z</time>
      </trkpt>
      <trkpt lat="43.4304" lon="6.08252">
        <ele>338</ele>
        <time>2017-02-08T13:37:31Z</time>
      </trkpt>
      <trkpt lat="43.43043" lon="6.08262">
        <ele>336.39999389648</ele>
        <time>2017-02-08T13:37:34Z</time>
      </trkpt>
      <trkpt lat="43.43044" lon="6.08271">
        <ele>335</ele>
        <time>2017-02-08T13:37:36Z</time>
      </trkpt>
      <trkpt lat="43.4305" lon="6.08287">
        <ele>332.39999389648</ele>
        <time>2017-02-08T13:37:40Z</time>
      </trkpt>
      <trkpt lat="43.43052" lon="6.08292">
        <ele>331</ele>
        <time>2017-02-08T13:37:41Z</time>
      </trkpt>
      <trkpt lat="43.43054" lon="6.08297">
        <ele>329.39999389648</ele>
        <time>2017-02-08T13:37:42Z</time>
      </trkpt>
      <trkpt lat="43.43056" lon="6.08302">
        <ele>328.39999389648</ele>
        <time>2017-02-08T13:37:43Z</time>
      </trkpt>
      <trkpt lat="43.43059" lon="6.08315">
        <ele>327</ele>
        <time>2017-02-08T13:37:45Z</time>
      </trkpt>
      <trkpt lat="43.43061" lon="6.08323">
        <ele>326.79998779297</ele>
        <time>2017-02-08T13:37:46Z</time>
      </trkpt>
      <trkpt lat="43.43067" lon="6.08336">
        <ele>326</ele>
        <time>2017-02-08T13:37:48Z</time>
      </trkpt>
      <trkpt lat="43.4307" lon="6.08343">
        <ele>326</ele>
        <time>2017-02-08T13:37:49Z</time>
      </trkpt>
      <trkpt lat="43.43073" lon="6.08348">
        <ele>326</ele>
        <time>2017-02-08T13:37:50Z</time>
      </trkpt>
      <trkpt lat="43.43078" lon="6.08357">
        <ele>325.79998779297</ele>
        <time>2017-02-08T13:37:52Z</time>
      </trkpt>
      <trkpt lat="43.43089" lon="6.08382">
        <ele>326.79998779297</ele>
        <time>2017-02-08T13:37:59Z</time>
      </trkpt>
      <trkpt lat="43.43093" lon="6.08418">
        <ele>324.79998779297</ele>
        <time>2017-02-08T13:38:05Z</time>
      </trkpt>
      <trkpt lat="43.43095" lon="6.08437">
        <ele>324.60000610352</ele>
        <time>2017-02-08T13:38:09Z</time>
      </trkpt>
      <trkpt lat="43.43098" lon="6.0845">
        <ele>325.60000610352</ele>
        <time>2017-02-08T13:38:12Z</time>
      </trkpt>
      <trkpt lat="43.431" lon="6.08459">
        <ele>326</ele>
        <time>2017-02-08T13:38:14Z</time>
      </trkpt>
      <trkpt lat="43.43106" lon="6.08485">
        <ele>328.20001220703</ele>
        <time>2017-02-08T13:38:21Z</time>
      </trkpt>
      <trkpt lat="43.43112" lon="6.08499">
        <ele>329.60000610352</ele>
        <time>2017-02-08T13:38:26Z</time>
      </trkpt>
      <trkpt lat="43.43117" lon="6.0851">
        <ele>330</ele>
        <time>2017-02-08T13:38:30Z</time>
      </trkpt>
      <trkpt lat="43.43119" lon="6.08515">
        <ele>330.60000610352</ele>
        <time>2017-02-08T13:38:32Z</time>
      </trkpt>
      <trkpt lat="43.43123" lon="6.0852">
        <ele>331.79998779297</ele>
        <time>2017-02-08T13:38:35Z</time>
      </trkpt>
      <trkpt lat="43.43124" lon="6.08521">
        <ele>332</ele>
        <time>2017-02-08T13:38:36Z</time>
      </trkpt>
      <trkpt lat="43.43125" lon="6.08522">
        <ele>332.39999389648</ele>
        <time>2017-02-08T13:38:37Z</time>
      </trkpt>
      <trkpt lat="43.43127" lon="6.08526">
        <ele>333</ele>
        <time>2017-02-08T13:38:39Z</time>
      </trkpt>
      <trkpt lat="43.43131" lon="6.08533">
        <ele>334.39999389648</ele>
        <time>2017-02-08T13:38:43Z</time>
      </trkpt>
      <trkpt lat="43.43135" lon="6.08542">
        <ele>335</ele>
        <time>2017-02-08T13:38:49Z</time>
      </trkpt>
      <trkpt lat="43.43138" lon="6.08548">
        <ele>335</ele>
        <time>2017-02-08T13:38:52Z</time>
      </trkpt>
      <trkpt lat="43.43145" lon="6.0856">
        <ele>335.39999389648</ele>
        <time>2017-02-08T13:38:59Z</time>
      </trkpt>
      <trkpt lat="43.4315" lon="6.08569">
        <ele>335.79998779297</ele>
        <time>2017-02-08T13:39:04Z</time>
      </trkpt>
      <trkpt lat="43.43152" lon="6.08572">
        <ele>336</ele>
        <time>2017-02-08T13:39:08Z</time>
      </trkpt>
      <trkpt lat="43.43152" lon="6.08572">
        <ele>336.20001220703</ele>
        <time>2017-02-08T13:39:09Z</time>
      </trkpt>
      <trkpt lat="43.43152" lon="6.08573">
        <ele>336.20001220703</ele>
        <time>2017-02-08T13:39:13Z</time>
      </trkpt>
      <trkpt lat="43.43152" lon="6.08573">
        <ele>336.20001220703</ele>
        <time>2017-02-08T13:39:17Z</time>
      </trkpt>
      <trkpt lat="43.43152" lon="6.08573">
        <ele>336.20001220703</ele>
        <time>2017-02-08T13:39:19Z</time>
      </trkpt>
      <trkpt lat="43.43153" lon="6.08578">
        <ele>336.20001220703</ele>
        <time>2017-02-08T13:39:24Z</time>
      </trkpt>
      <trkpt lat="43.43158" lon="6.08589">
        <ele>336.20001220703</ele>
        <time>2017-02-08T13:39:29Z</time>
      </trkpt>
      <trkpt lat="43.43168" lon="6.08623">
        <ele>334.60000610352</ele>
        <time>2017-02-08T13:39:38Z</time>
      </trkpt>
      <trkpt lat="43.43178" lon="6.08661">
        <ele>334.20001220703</ele>
        <time>2017-02-08T13:39:47Z</time>
      </trkpt>
      <trkpt lat="43.43181" lon="6.08671">
        <ele>333.79998779297</ele>
        <time>2017-02-08T13:39:49Z</time>
      </trkpt>
      <trkpt lat="43.43193" lon="6.08715">
        <ele>333.79998779297</ele>
        <time>2017-02-08T13:39:59Z</time>
      </trkpt>
      <trkpt lat="43.43201" lon="6.08745">
        <ele>335.20001220703</ele>
        <time>2017-02-08T13:40:08Z</time>
      </trkpt>
      <trkpt lat="43.43203" lon="6.08754">
        <ele>336.39999389648</ele>
        <time>2017-02-08T13:40:11Z</time>
      </trkpt>
      <trkpt lat="43.43204" lon="6.08759">
        <ele>337.60000610352</ele>
        <time>2017-02-08T13:40:13Z</time>
      </trkpt>
      <trkpt lat="43.43206" lon="6.08767">
        <ele>338.60000610352</ele>
        <time>2017-02-08T13:40:16Z</time>
      </trkpt>
      <trkpt lat="43.43211" lon="6.08782">
        <ele>339.79998779297</ele>
        <time>2017-02-08T13:40:22Z</time>
      </trkpt>
      <trkpt lat="43.43212" lon="6.08787">
        <ele>340</ele>
        <time>2017-02-08T13:40:24Z</time>
      </trkpt>
      <trkpt lat="43.43218" lon="6.08812">
        <ele>343.60000610352</ele>
        <time>2017-02-08T13:40:36Z</time>
      </trkpt>
      <trkpt lat="43.43219" lon="6.08817">
        <ele>344.20001220703</ele>
        <time>2017-02-08T13:40:39Z</time>
      </trkpt>
      <trkpt lat="43.4322" lon="6.08823">
        <ele>344.60000610352</ele>
        <time>2017-02-08T13:40:43Z</time>
      </trkpt>
      <trkpt lat="43.43223" lon="6.08835">
        <ele>345.39999389648</ele>
        <time>2017-02-08T13:40:49Z</time>
      </trkpt>
      <trkpt lat="43.43227" lon="6.08853">
        <ele>346.39999389648</ele>
        <time>2017-02-08T13:40:59Z</time>
      </trkpt>
      <trkpt lat="43.43234" lon="6.08884">
        <ele>346.79998779297</ele>
        <time>2017-02-08T13:41:13Z</time>
      </trkpt>
      <trkpt lat="43.43238" lon="6.089">
        <ele>347.39999389648</ele>
        <time>2017-02-08T13:41:19Z</time>
      </trkpt>
      <trkpt lat="43.43241" lon="6.08921">
        <ele>347.39999389648</ele>
        <time>2017-02-08T13:41:26Z</time>
      </trkpt>
      <trkpt lat="43.43245" lon="6.08938">
        <ele>347</ele>
        <time>2017-02-08T13:41:32Z</time>
      </trkpt>
      <trkpt lat="43.43247" lon="6.08947">
        <ele>347</ele>
        <time>2017-02-08T13:41:35Z</time>
      </trkpt>
      <trkpt lat="43.43249" lon="6.08959">
        <ele>347</ele>
        <time>2017-02-08T13:41:39Z</time>
      </trkpt>
      <trkpt lat="43.4325" lon="6.08966">
        <ele>346.79998779297</ele>
        <time>2017-02-08T13:41:41Z</time>
      </trkpt>
      <trkpt lat="43.43253" lon="6.08988">
        <ele>345.79998779297</ele>
        <time>2017-02-08T13:41:46Z</time>
      </trkpt>
      <trkpt lat="43.43254" lon="6.09002">
        <ele>345</ele>
        <time>2017-02-08T13:41:49Z</time>
      </trkpt>
      <trkpt lat="43.43254" lon="6.09008">
        <ele>344.79998779297</ele>
        <time>2017-02-08T13:41:50Z</time>
      </trkpt>
      <trkpt lat="43.43257" lon="6.09026">
        <ele>343.60000610352</ele>
        <time>2017-02-08T13:41:54Z</time>
      </trkpt>
      <trkpt lat="43.43259" lon="6.09037">
        <ele>342.39999389648</ele>
        <time>2017-02-08T13:41:57Z</time>
      </trkpt>
      <trkpt lat="43.43259" lon="6.09043">
        <ele>341.39999389648</ele>
        <time>2017-02-08T13:41:59Z</time>
      </trkpt>
      <trkpt lat="43.43259" lon="6.09047">
        <ele>341</ele>
        <time>2017-02-08T13:42:00Z</time>
      </trkpt>
      <trkpt lat="43.43256" lon="6.09053">
        <ele>340</ele>
        <time>2017-02-08T13:42:02Z</time>
      </trkpt>
      <trkpt lat="43.4325" lon="6.09066">
        <ele>338.79998779297</ele>
        <time>2017-02-08T13:42:06Z</time>
      </trkpt>
      <trkpt lat="43.43243" lon="6.09071">
        <ele>337.60000610352</ele>
        <time>2017-02-08T13:42:08Z</time>
      </trkpt>
      <trkpt lat="43.43239" lon="6.09074">
        <ele>336.60000610352</ele>
        <time>2017-02-08T13:42:09Z</time>
      </trkpt>
      <trkpt lat="43.43235" lon="6.09078">
        <ele>335.60000610352</ele>
        <time>2017-02-08T13:42:10Z</time>
      </trkpt>
      <trkpt lat="43.43227" lon="6.09086">
        <ele>334.20001220703</ele>
        <time>2017-02-08T13:42:12Z</time>
      </trkpt>
      <trkpt lat="43.43218" lon="6.091">
        <ele>333.20001220703</ele>
        <time>2017-02-08T13:42:15Z</time>
      </trkpt>
      <trkpt lat="43.43218" lon="6.09119">
        <ele>333.20001220703</ele>
        <time>2017-02-08T13:42:19Z</time>
      </trkpt>
      <trkpt lat="43.43244" lon="6.09148">
        <ele>332.79998779297</ele>
        <time>2017-02-08T13:42:28Z</time>
      </trkpt>
      <trkpt lat="43.43248" lon="6.0915">
        <ele>332.60000610352</ele>
        <time>2017-02-08T13:42:29Z</time>
      </trkpt>
      <trkpt lat="43.43285" lon="6.09155">
        <ele>331.79998779297</ele>
        <time>2017-02-08T13:42:39Z</time>
      </trkpt>
      <trkpt lat="43.43299" lon="6.09163">
        <ele>331</ele>
        <time>2017-02-08T13:42:43Z</time>
      </trkpt>
      <trkpt lat="43.43307" lon="6.09175">
        <ele>329.60000610352</ele>
        <time>2017-02-08T13:42:46Z</time>
      </trkpt>
      <trkpt lat="43.43308" lon="6.09181">
        <ele>328.79998779297</ele>
        <time>2017-02-08T13:42:47Z</time>
      </trkpt>
      <trkpt lat="43.4331" lon="6.09193">
        <ele>328.39999389648</ele>
        <time>2017-02-08T13:42:49Z</time>
      </trkpt>
      <trkpt lat="43.43315" lon="6.0921">
        <ele>327.60000610352</ele>
        <time>2017-02-08T13:42:52Z</time>
      </trkpt>
      <trkpt lat="43.43315" lon="6.09216">
        <ele>327.20001220703</ele>
        <time>2017-02-08T13:42:53Z</time>
      </trkpt>
      <trkpt lat="43.43317" lon="6.09228">
        <ele>325</ele>
        <time>2017-02-08T13:42:55Z</time>
      </trkpt>
      <trkpt lat="43.43316" lon="6.09232">
        <ele>323.79998779297</ele>
        <time>2017-02-08T13:42:56Z</time>
      </trkpt>
      <trkpt lat="43.43312" lon="6.09241">
        <ele>322.60000610352</ele>
        <time>2017-02-08T13:42:58Z</time>
      </trkpt>
      <trkpt lat="43.43311" lon="6.09244">
        <ele>322.20001220703</ele>
        <time>2017-02-08T13:42:59Z</time>
      </trkpt>
      <trkpt lat="43.43305" lon="6.09247">
        <ele>322.20001220703</ele>
        <time>2017-02-08T13:43:01Z</time>
      </trkpt>
      <trkpt lat="43.43302" lon="6.09248">
        <ele>322</ele>
        <time>2017-02-08T13:43:02Z</time>
      </trkpt>
      <trkpt lat="43.43296" lon="6.0925">
        <ele>321.20001220703</ele>
        <time>2017-02-08T13:43:04Z</time>
      </trkpt>
      <trkpt lat="43.43288" lon="6.09257">
        <ele>320.20001220703</ele>
        <time>2017-02-08T13:43:06Z</time>
      </trkpt>
      <trkpt lat="43.4328" lon="6.09262">
        <ele>319</ele>
        <time>2017-02-08T13:43:08Z</time>
      </trkpt>
      <trkpt lat="43.43278" lon="6.09264">
        <ele>318.39999389648</ele>
        <time>2017-02-08T13:43:09Z</time>
      </trkpt>
      <trkpt lat="43.43275" lon="6.09266">
        <ele>317.79998779297</ele>
        <time>2017-02-08T13:43:10Z</time>
      </trkpt>
      <trkpt lat="43.43267" lon="6.09274">
        <ele>316.39999389648</ele>
        <time>2017-02-08T13:43:13Z</time>
      </trkpt>
      <trkpt lat="43.43264" lon="6.09278">
        <ele>315.79998779297</ele>
        <time>2017-02-08T13:43:14Z</time>
      </trkpt>
      <trkpt lat="43.43261" lon="6.09291">
        <ele>315</ele>
        <time>2017-02-08T13:43:16Z</time>
      </trkpt>
      <trkpt lat="43.43261" lon="6.09298">
        <ele>314.39999389648</ele>
        <time>2017-02-08T13:43:17Z</time>
      </trkpt>
      <trkpt lat="43.43259" lon="6.09313">
        <ele>313</ele>
        <time>2017-02-08T13:43:20Z</time>
      </trkpt>
      <trkpt lat="43.43258" lon="6.09323">
        <ele>312.20001220703</ele>
        <time>2017-02-08T13:43:22Z</time>
      </trkpt>
      <trkpt lat="43.43251" lon="6.09354">
        <ele>310.79998779297</ele>
        <time>2017-02-08T13:43:27Z</time>
      </trkpt>
      <trkpt lat="43.4325" lon="6.09367">
        <ele>309.60000610352</ele>
        <time>2017-02-08T13:43:29Z</time>
      </trkpt>
      <trkpt lat="43.4325" lon="6.09377">
        <ele>308.20001220703</ele>
        <time>2017-02-08T13:43:32Z</time>
      </trkpt>
      <trkpt lat="43.43251" lon="6.09377">
        <ele>307.79998779297</ele>
        <time>2017-02-08T13:43:34Z</time>
      </trkpt>
      <trkpt lat="43.43251" lon="6.09377">
        <ele>307.60000610352</ele>
        <time>2017-02-08T13:43:37Z</time>
      </trkpt>
      <trkpt lat="43.43251" lon="6.09377">
        <ele>307.60000610352</ele>
        <time>2017-02-08T13:43:41Z</time>
      </trkpt>
      <trkpt lat="43.43251" lon="6.09377">
        <ele>307.79998779297</ele>
        <time>2017-02-08T13:43:44Z</time>
      </trkpt>
      <trkpt lat="43.4325" lon="6.09378">
        <ele>307.79998779297</ele>
        <time>2017-02-08T13:43:49Z</time>
      </trkpt>
      <trkpt lat="43.4325" lon="6.09378">
        <ele>307.79998779297</ele>
        <time>2017-02-08T13:43:53Z</time>
      </trkpt>
      <trkpt lat="43.43249" lon="6.09379">
        <ele>308</ele>
        <time>2017-02-08T13:43:59Z</time>
      </trkpt>
      <trkpt lat="43.43248" lon="6.09381">
        <ele>307.79998779297</ele>
        <time>2017-02-08T13:44:06Z</time>
      </trkpt>
      <trkpt lat="43.43248" lon="6.09381">
        <ele>307.79998779297</ele>
        <time>2017-02-08T13:44:09Z</time>
      </trkpt>
      <trkpt lat="43.43248" lon="6.09381">
        <ele>307.60000610352</ele>
        <time>2017-02-08T13:44:19Z</time>
      </trkpt>
      <trkpt lat="43.43248" lon="6.09381">
        <ele>307.60000610352</ele>
        <time>2017-02-08T13:44:29Z</time>
      </trkpt>
      <trkpt lat="43.43248" lon="6.0938">
        <ele>307.60000610352</ele>
        <time>2017-02-08T13:44:33Z</time>
      </trkpt>
      <trkpt lat="43.43246" lon="6.09379">
        <ele>307.79998779297</ele>
        <time>2017-02-08T13:44:38Z</time>
      </trkpt>
      <trkpt lat="43.43246" lon="6.09379">
        <ele>307.79998779297</ele>
        <time>2017-02-08T13:44:39Z</time>
      </trkpt>
      <trkpt lat="43.43246" lon="6.09379">
        <ele>307.79998779297</ele>
        <time>2017-02-08T13:44:48Z</time>
      </trkpt>
      <trkpt lat="43.43246" lon="6.09381">
        <ele>307.79998779297</ele>
        <time>2017-02-08T13:44:59Z</time>
      </trkpt>
      <trkpt lat="43.43245" lon="6.09382">
        <ele>307.79998779297</ele>
        <time>2017-02-08T13:45:06Z</time>
      </trkpt>
      <trkpt lat="43.43245" lon="6.09381">
        <ele>307.79998779297</ele>
        <time>2017-02-08T13:45:09Z</time>
      </trkpt>
      <trkpt lat="43.43243" lon="6.09381">
        <ele>307.79998779297</ele>
        <time>2017-02-08T13:45:16Z</time>
      </trkpt>
      <trkpt lat="43.43243" lon="6.09381">
        <ele>307.79998779297</ele>
        <time>2017-02-08T13:45:19Z</time>
      </trkpt>
      <trkpt lat="43.43243" lon="6.09383">
        <ele>307.79998779297</ele>
        <time>2017-02-08T13:45:29Z</time>
      </trkpt>
      <trkpt lat="43.43243" lon="6.09383">
        <ele>307.79998779297</ele>
        <time>2017-02-08T13:45:39Z</time>
      </trkpt>
      <trkpt lat="43.43243" lon="6.09381">
        <ele>307.79998779297</ele>
        <time>2017-02-08T13:45:55Z</time>
      </trkpt>
      <trkpt lat="43.43243" lon="6.0938">
        <ele>307.79998779297</ele>
        <time>2017-02-08T13:45:59Z</time>
      </trkpt>
      <trkpt lat="43.43241" lon="6.0938">
        <ele>307.79998779297</ele>
        <time>2017-02-08T13:46:19Z</time>
      </trkpt>
      <trkpt lat="43.43242" lon="6.09383">
        <ele>307.79998779297</ele>
        <time>2017-02-08T13:46:29Z</time>
      </trkpt>
      <trkpt lat="43.43246" lon="6.09382">
        <ele>307.79998779297</ele>
        <time>2017-02-08T13:46:39Z</time>
      </trkpt>
      <trkpt lat="43.43247" lon="6.09381">
        <ele>307.79998779297</ele>
        <time>2017-02-08T13:46:49Z</time>
      </trkpt>
      <trkpt lat="43.43247" lon="6.0938">
        <ele>307.79998779297</ele>
        <time>2017-02-08T13:46:58Z</time>
      </trkpt>
      <trkpt lat="43.43246" lon="6.0938">
        <ele>307.79998779297</ele>
        <time>2017-02-08T13:46:59Z</time>
      </trkpt>
      <trkpt lat="43.43246" lon="6.09379">
        <ele>307.79998779297</ele>
        <time>2017-02-08T13:47:02Z</time>
      </trkpt>
      <trkpt lat="43.43245" lon="6.0938">
        <ele>307.79998779297</ele>
        <time>2017-02-08T13:47:05Z</time>
      </trkpt>
      <trkpt lat="43.43244" lon="6.0938">
        <ele>307.79998779297</ele>
        <time>2017-02-08T13:47:08Z</time>
      </trkpt>
      <trkpt lat="43.43242" lon="6.09379">
        <ele>307.79998779297</ele>
        <time>2017-02-08T13:47:09Z</time>
      </trkpt>
      <trkpt lat="43.4324" lon="6.09378">
        <ele>307.39999389648</ele>
        <time>2017-02-08T13:47:10Z</time>
      </trkpt>
      <trkpt lat="43.43234" lon="6.09378">
        <ele>307</ele>
        <time>2017-02-08T13:47:13Z</time>
      </trkpt>
      <trkpt lat="43.43219" lon="6.09384">
        <ele>306</ele>
        <time>2017-02-08T13:47:19Z</time>
      </trkpt>
      <trkpt lat="43.43205" lon="6.09387">
        <ele>305</ele>
        <time>2017-02-08T13:47:23Z</time>
      </trkpt>
      <trkpt lat="43.43186" lon="6.09386">
        <ele>304.60000610352</ele>
        <time>2017-02-08T13:47:29Z</time>
      </trkpt>
      <trkpt lat="43.43161" lon="6.09404">
        <ele>303.79998779297</ele>
        <time>2017-02-08T13:47:37Z</time>
      </trkpt>
      <trkpt lat="43.43155" lon="6.09411">
        <ele>303.79998779297</ele>
        <time>2017-02-08T13:47:39Z</time>
      </trkpt>
      <trkpt lat="43.43142" lon="6.09422">
        <ele>303.20001220703</ele>
        <time>2017-02-08T13:47:43Z</time>
      </trkpt>
      <trkpt lat="43.43134" lon="6.09426">
        <ele>302.39999389648</ele>
        <time>2017-02-08T13:47:45Z</time>
      </trkpt>
      <trkpt lat="43.4312" lon="6.09438">
        <ele>302.39999389648</ele>
        <time>2017-02-08T13:47:49Z</time>
      </trkpt>
      <trkpt lat="43.43098" lon="6.09459">
        <ele>301.79998779297</ele>
        <time>2017-02-08T13:47:56Z</time>
      </trkpt>
      <trkpt lat="43.43087" lon="6.09467">
        <ele>301.79998779297</ele>
        <time>2017-02-08T13:47:59Z</time>
      </trkpt>
      <trkpt lat="43.43073" lon="6.09477">
        <ele>301.60000610352</ele>
        <time>2017-02-08T13:48:03Z</time>
      </trkpt>
      <trkpt lat="43.43068" lon="6.09476">
        <ele>301.20001220703</ele>
        <time>2017-02-08T13:48:04Z</time>
      </trkpt>
      <trkpt lat="43.43059" lon="6.09471">
        <ele>299.79998779297</ele>
        <time>2017-02-08T13:48:06Z</time>
      </trkpt>
      <trkpt lat="43.43049" lon="6.09473">
        <ele>298.60000610352</ele>
        <time>2017-02-08T13:48:09Z</time>
      </trkpt>
      <trkpt lat="43.43045" lon="6.09474">
        <ele>298.39999389648</ele>
        <time>2017-02-08T13:48:10Z</time>
      </trkpt>
      <trkpt lat="43.43041" lon="6.09475">
        <ele>297.79998779297</ele>
        <time>2017-02-08T13:48:11Z</time>
      </trkpt>
      <trkpt lat="43.43037" lon="6.09474">
        <ele>297.39999389648</ele>
        <time>2017-02-08T13:48:12Z</time>
      </trkpt>
      <trkpt lat="43.43032" lon="6.09471">
        <ele>296.79998779297</ele>
        <time>2017-02-08T13:48:13Z</time>
      </trkpt>
      <trkpt lat="43.43029" lon="6.09467">
        <ele>296.39999389648</ele>
        <time>2017-02-08T13:48:14Z</time>
      </trkpt>
      <trkpt lat="43.43019" lon="6.09455">
        <ele>295.20001220703</ele>
        <time>2017-02-08T13:48:17Z</time>
      </trkpt>
      <trkpt lat="43.43012" lon="6.09449">
        <ele>294.39999389648</ele>
        <time>2017-02-08T13:48:19Z</time>
      </trkpt>
      <trkpt lat="43.43005" lon="6.09444">
        <ele>294.39999389648</ele>
        <time>2017-02-08T13:48:21Z</time>
      </trkpt>
      <trkpt lat="43.42997" lon="6.09442">
        <ele>294</ele>
        <time>2017-02-08T13:48:23Z</time>
      </trkpt>
      <trkpt lat="43.42992" lon="6.0944">
        <ele>292.39999389648</ele>
        <time>2017-02-08T13:48:25Z</time>
      </trkpt>
      <trkpt lat="43.42992" lon="6.0944">
        <ele>291.39999389648</ele>
        <time>2017-02-08T13:48:28Z</time>
      </trkpt>
      <trkpt lat="43.42991" lon="6.09439">
        <ele>291.20001220703</ele>
        <time>2017-02-08T13:48:29Z</time>
      </trkpt>
      <trkpt lat="43.42991" lon="6.09438">
        <ele>291.20001220703</ele>
        <time>2017-02-08T13:48:37Z</time>
      </trkpt>
      <trkpt lat="43.4299" lon="6.09438">
        <ele>291.20001220703</ele>
        <time>2017-02-08T13:48:39Z</time>
      </trkpt>
      <trkpt lat="43.4299" lon="6.09437">
        <ele>291.20001220703</ele>
        <time>2017-02-08T13:48:49Z</time>
      </trkpt>
      <trkpt lat="43.4299" lon="6.09437">
        <ele>291.20001220703</ele>
        <time>2017-02-08T13:48:55Z</time>
      </trkpt>
      <trkpt lat="43.42991" lon="6.09438">
        <ele>291.20001220703</ele>
        <time>2017-02-08T13:48:59Z</time>
      </trkpt>
      <trkpt lat="43.42991" lon="6.09438">
        <ele>291.20001220703</ele>
        <time>2017-02-08T13:49:09Z</time>
      </trkpt>
      <trkpt lat="43.42991" lon="6.09438">
        <ele>291.20001220703</ele>
        <time>2017-02-08T13:49:19Z</time>
      </trkpt>
      <trkpt lat="43.4299" lon="6.09438">
        <ele>291.20001220703</ele>
        <time>2017-02-08T13:49:29Z</time>
      </trkpt>
      <trkpt lat="43.4299" lon="6.09438">
        <ele>291.20001220703</ele>
        <time>2017-02-08T13:49:39Z</time>
      </trkpt>
      <trkpt lat="43.4299" lon="6.09438">
        <ele>291.20001220703</ele>
        <time>2017-02-08T13:49:49Z</time>
      </trkpt>
      <trkpt lat="43.42987" lon="6.09437">
        <ele>291</ele>
        <time>2017-02-08T13:49:52Z</time>
      </trkpt>
      <trkpt lat="43.42975" lon="6.09438">
        <ele>290</ele>
        <time>2017-02-08T13:49:56Z</time>
      </trkpt>
      <trkpt lat="43.42966" lon="6.09442">
        <ele>290.20001220703</ele>
        <time>2017-02-08T13:49:59Z</time>
      </trkpt>
      <trkpt lat="43.42941" lon="6.09443">
        <ele>289</ele>
        <time>2017-02-08T13:50:08Z</time>
      </trkpt>
      <trkpt lat="43.42938" lon="6.09442">
        <ele>289</ele>
        <time>2017-02-08T13:50:09Z</time>
      </trkpt>
      <trkpt lat="43.42926" lon="6.09434">
        <ele>288.39999389648</ele>
        <time>2017-02-08T13:50:13Z</time>
      </trkpt>
      <trkpt lat="43.42917" lon="6.09427">
        <ele>288.20001220703</ele>
        <time>2017-02-08T13:50:16Z</time>
      </trkpt>
      <trkpt lat="43.4291" lon="6.0942">
        <ele>288.20001220703</ele>
        <time>2017-02-08T13:50:19Z</time>
      </trkpt>
      <trkpt lat="43.429" lon="6.09382">
        <ele>289</ele>
        <time>2017-02-08T13:50:29Z</time>
      </trkpt>
      <trkpt lat="43.42901" lon="6.09358">
        <ele>289</ele>
        <time>2017-02-08T13:50:35Z</time>
      </trkpt>
      <trkpt lat="43.42904" lon="6.09339">
        <ele>289.79998779297</ele>
        <time>2017-02-08T13:50:39Z</time>
      </trkpt>
      <trkpt lat="43.42905" lon="6.09326">
        <ele>290</ele>
        <time>2017-02-08T13:50:42Z</time>
      </trkpt>
      <trkpt lat="43.42908" lon="6.09302">
        <ele>290.20001220703</ele>
        <time>2017-02-08T13:50:49Z</time>
      </trkpt>
      <trkpt lat="43.42906" lon="6.0927">
        <ele>291.20001220703</ele>
        <time>2017-02-08T13:50:58Z</time>
      </trkpt>
      <trkpt lat="43.42903" lon="6.09257">
        <ele>292.20001220703</ele>
        <time>2017-02-08T13:51:02Z</time>
      </trkpt>
      <trkpt lat="43.429" lon="6.09247">
        <ele>293</ele>
        <time>2017-02-08T13:51:05Z</time>
      </trkpt>
      <trkpt lat="43.429" lon="6.09242">
        <ele>293.39999389648</ele>
        <time>2017-02-08T13:51:07Z</time>
      </trkpt>
      <trkpt lat="43.429" lon="6.09237">
        <ele>293.60000610352</ele>
        <time>2017-02-08T13:51:09Z</time>
      </trkpt>
      <trkpt lat="43.42907" lon="6.09213">
        <ele>294</ele>
        <time>2017-02-08T13:51:19Z</time>
      </trkpt>
      <trkpt lat="43.4291" lon="6.0921">
        <ele>294.39999389648</ele>
        <time>2017-02-08T13:51:21Z</time>
      </trkpt>
      <trkpt lat="43.42923" lon="6.09198">
        <ele>294.79998779297</ele>
        <time>2017-02-08T13:51:29Z</time>
      </trkpt>
      <trkpt lat="43.42931" lon="6.09182">
        <ele>295.39999389648</ele>
        <time>2017-02-08T13:51:36Z</time>
      </trkpt>
      <trkpt lat="43.42931" lon="6.09172">
        <ele>296.39999389648</ele>
        <time>2017-02-08T13:51:40Z</time>
      </trkpt>
      <trkpt lat="43.4293" lon="6.09159">
        <ele>297.60000610352</ele>
        <time>2017-02-08T13:51:45Z</time>
      </trkpt>
      <trkpt lat="43.4293" lon="6.0915">
        <ele>298</ele>
        <time>2017-02-08T13:51:49Z</time>
      </trkpt>
      <trkpt lat="43.4293" lon="6.09141">
        <ele>298.60000610352</ele>
        <time>2017-02-08T13:51:53Z</time>
      </trkpt>
      <trkpt lat="43.42931" lon="6.09129">
        <ele>299.60000610352</ele>
        <time>2017-02-08T13:51:59Z</time>
      </trkpt>
      <trkpt lat="43.42937" lon="6.0912">
        <ele>300.60000610352</ele>
        <time>2017-02-08T13:52:06Z</time>
      </trkpt>
      <trkpt lat="43.42941" lon="6.09114">
        <ele>301.79998779297</ele>
        <time>2017-02-08T13:52:11Z</time>
      </trkpt>
      <trkpt lat="43.42948" lon="6.09103">
        <ele>304</ele>
        <time>2017-02-08T13:52:21Z</time>
      </trkpt>
      <trkpt lat="43.4295" lon="6.09101">
        <ele>304.60000610352</ele>
        <time>2017-02-08T13:52:24Z</time>
      </trkpt>
      <trkpt lat="43.42951" lon="6.09098">
        <ele>305</ele>
        <time>2017-02-08T13:52:26Z</time>
      </trkpt>
      <trkpt lat="43.42953" lon="6.09095">
        <ele>305.60000610352</ele>
        <time>2017-02-08T13:52:29Z</time>
      </trkpt>
      <trkpt lat="43.42957" lon="6.09092">
        <ele>306</ele>
        <time>2017-02-08T13:52:33Z</time>
      </trkpt>
      <trkpt lat="43.42964" lon="6.0909">
        <ele>306.79998779297</ele>
        <time>2017-02-08T13:52:39Z</time>
      </trkpt>
      <trkpt lat="43.42971" lon="6.09086">
        <ele>308.39999389648</ele>
        <time>2017-02-08T13:52:49Z</time>
      </trkpt>
      <trkpt lat="43.42976" lon="6.0908">
        <ele>308.60000610352</ele>
        <time>2017-02-08T13:52:56Z</time>
      </trkpt>
      <trkpt lat="43.42976" lon="6.0908">
        <ele>308.60000610352</ele>
        <time>2017-02-08T13:52:57Z</time>
      </trkpt>
      <trkpt lat="43.42978" lon="6.09078">
        <ele>308.60000610352</ele>
        <time>2017-02-08T13:52:59Z</time>
      </trkpt>
      <trkpt lat="43.42981" lon="6.09075">
        <ele>308.60000610352</ele>
        <time>2017-02-08T13:53:02Z</time>
      </trkpt>
      <trkpt lat="43.42988" lon="6.09066">
        <ele>308.39999389648</ele>
        <time>2017-02-08T13:53:06Z</time>
      </trkpt>
      <trkpt lat="43.42994" lon="6.09059">
        <ele>307.60000610352</ele>
        <time>2017-02-08T13:53:09Z</time>
      </trkpt>
      <trkpt lat="43.43" lon="6.09054">
        <ele>307.39999389648</ele>
        <time>2017-02-08T13:53:11Z</time>
      </trkpt>
      <trkpt lat="43.43003" lon="6.09052">
        <ele>307.39999389648</ele>
        <time>2017-02-08T13:53:12Z</time>
      </trkpt>
      <trkpt lat="43.43011" lon="6.09042">
        <ele>307.20001220703</ele>
        <time>2017-02-08T13:53:16Z</time>
      </trkpt>
      <trkpt lat="43.43016" lon="6.09035">
        <ele>307.20001220703</ele>
        <time>2017-02-08T13:53:19Z</time>
      </trkpt>
      <trkpt lat="43.43018" lon="6.0903">
        <ele>307.20001220703</ele>
        <time>2017-02-08T13:53:21Z</time>
      </trkpt>
      <trkpt lat="43.43021" lon="6.09">
        <ele>306.20001220703</ele>
        <time>2017-02-08T13:53:29Z</time>
      </trkpt>
      <trkpt lat="43.43021" lon="6.08977">
        <ele>305.20001220703</ele>
        <time>2017-02-08T13:53:33Z</time>
      </trkpt>
      <trkpt lat="43.43021" lon="6.08971">
        <ele>304.79998779297</ele>
        <time>2017-02-08T13:53:34Z</time>
      </trkpt>
      <trkpt lat="43.43021" lon="6.08965">
        <ele>304.60000610352</ele>
        <time>2017-02-08T13:53:35Z</time>
      </trkpt>
      <trkpt lat="43.43021" lon="6.08957">
        <ele>304</ele>
        <time>2017-02-08T13:53:37Z</time>
      </trkpt>
      <trkpt lat="43.43022" lon="6.08951">
        <ele>304</ele>
        <time>2017-02-08T13:53:39Z</time>
      </trkpt>
      <trkpt lat="43.43021" lon="6.08945">
        <ele>304</ele>
        <time>2017-02-08T13:53:42Z</time>
      </trkpt>
      <trkpt lat="43.43021" lon="6.08944">
        <ele>304</ele>
        <time>2017-02-08T13:53:43Z</time>
      </trkpt>
      <trkpt lat="43.43021" lon="6.08942">
        <ele>303.79998779297</ele>
        <time>2017-02-08T13:53:44Z</time>
      </trkpt>
      <trkpt lat="43.4302" lon="6.08935">
        <ele>303.39999389648</ele>
        <time>2017-02-08T13:53:47Z</time>
      </trkpt>
      <trkpt lat="43.43018" lon="6.0893">
        <ele>303.39999389648</ele>
        <time>2017-02-08T13:53:49Z</time>
      </trkpt>
      <trkpt lat="43.43018" lon="6.08928">
        <ele>303.39999389648</ele>
        <time>2017-02-08T13:53:50Z</time>
      </trkpt>
      <trkpt lat="43.43016" lon="6.08928">
        <ele>303.60000610352</ele>
        <time>2017-02-08T13:53:55Z</time>
      </trkpt>
      <trkpt lat="43.43016" lon="6.08928">
        <ele>303.60000610352</ele>
        <time>2017-02-08T13:53:57Z</time>
      </trkpt>
      <trkpt lat="43.43015" lon="6.08928">
        <ele>303.60000610352</ele>
        <time>2017-02-08T13:53:59Z</time>
      </trkpt>
      <trkpt lat="43.43015" lon="6.08928">
        <ele>303.60000610352</ele>
        <time>2017-02-08T13:54:09Z</time>
      </trkpt>
      <trkpt lat="43.43013" lon="6.08926">
        <ele>303.39999389648</ele>
        <time>2017-02-08T13:54:16Z</time>
      </trkpt>
      <trkpt lat="43.43013" lon="6.08924">
        <ele>303.39999389648</ele>
        <time>2017-02-08T13:54:17Z</time>
      </trkpt>
      <trkpt lat="43.43012" lon="6.0892">
        <ele>303.39999389648</ele>
        <time>2017-02-08T13:54:19Z</time>
      </trkpt>
      <trkpt lat="43.43016" lon="6.08892">
        <ele>303.39999389648</ele>
        <time>2017-02-08T13:54:30Z</time>
      </trkpt>
      <trkpt lat="43.43015" lon="6.08873">
        <ele>302.79998779297</ele>
        <time>2017-02-08T13:54:36Z</time>
      </trkpt>
      <trkpt lat="43.43016" lon="6.08862">
        <ele>302.60000610352</ele>
        <time>2017-02-08T13:54:39Z</time>
      </trkpt>
      <trkpt lat="43.43018" lon="6.08849">
        <ele>302.39999389648</ele>
        <time>2017-02-08T13:54:42Z</time>
      </trkpt>
      <trkpt lat="43.43017" lon="6.08834">
        <ele>301.60000610352</ele>
        <time>2017-02-08T13:54:45Z</time>
      </trkpt>
      <trkpt lat="43.43011" lon="6.08801">
        <ele>300.60000610352</ele>
        <time>2017-02-08T13:54:52Z</time>
      </trkpt>
      <trkpt lat="43.43009" lon="6.0878">
        <ele>300</ele>
        <time>2017-02-08T13:54:56Z</time>
      </trkpt>
      <trkpt lat="43.43009" lon="6.08765">
        <ele>300</ele>
        <time>2017-02-08T13:54:59Z</time>
      </trkpt>
      <trkpt lat="43.43003" lon="6.08744">
        <ele>299.60000610352</ele>
        <time>2017-02-08T13:55:03Z</time>
      </trkpt>
      <trkpt lat="43.43" lon="6.08734">
        <ele>299.60000610352</ele>
        <time>2017-02-08T13:55:05Z</time>
      </trkpt>
      <trkpt lat="43.42999" lon="6.08729">
        <ele>299.39999389648</ele>
        <time>2017-02-08T13:55:06Z</time>
      </trkpt>
      <trkpt lat="43.42985" lon="6.08698">
        <ele>298.39999389648</ele>
        <time>2017-02-08T13:55:12Z</time>
      </trkpt>
      <trkpt lat="43.42983" lon="6.08692">
        <ele>298.20001220703</ele>
        <time>2017-02-08T13:55:13Z</time>
      </trkpt>
      <trkpt lat="43.42974" lon="6.08656">
        <ele>298.20001220703</ele>
        <time>2017-02-08T13:55:19Z</time>
      </trkpt>
      <trkpt lat="43.42966" lon="6.08625">
        <ele>297.39999389648</ele>
        <time>2017-02-08T13:55:24Z</time>
      </trkpt>
      <trkpt lat="43.42965" lon="6.08618">
        <ele>297.20001220703</ele>
        <time>2017-02-08T13:55:25Z</time>
      </trkpt>
      <trkpt lat="43.42957" lon="6.0859">
        <ele>296.79998779297</ele>
        <time>2017-02-08T13:55:29Z</time>
      </trkpt>
      <trkpt lat="43.42956" lon="6.08583">
        <ele>296.60000610352</ele>
        <time>2017-02-08T13:55:30Z</time>
      </trkpt>
      <trkpt lat="43.4295" lon="6.08558">
        <ele>296.20001220703</ele>
        <time>2017-02-08T13:55:34Z</time>
      </trkpt>
      <trkpt lat="43.42947" lon="6.08546">
        <ele>295.79998779297</ele>
        <time>2017-02-08T13:55:36Z</time>
      </trkpt>
      <trkpt lat="43.42942" lon="6.0853">
        <ele>295.60000610352</ele>
        <time>2017-02-08T13:55:39Z</time>
      </trkpt>
      <trkpt lat="43.42939" lon="6.08518">
        <ele>295.39999389648</ele>
        <time>2017-02-08T13:55:41Z</time>
      </trkpt>
      <trkpt lat="43.42927" lon="6.085">
        <ele>295.39999389648</ele>
        <time>2017-02-08T13:55:45Z</time>
      </trkpt>
      <trkpt lat="43.4291" lon="6.08484">
        <ele>296</ele>
        <time>2017-02-08T13:55:50Z</time>
      </trkpt>
      <trkpt lat="43.42904" lon="6.08476">
        <ele>296</ele>
        <time>2017-02-08T13:55:52Z</time>
      </trkpt>
      <trkpt lat="43.42896" lon="6.08462">
        <ele>296.39999389648</ele>
        <time>2017-02-08T13:55:55Z</time>
      </trkpt>
      <trkpt lat="43.42885" lon="6.08444">
        <ele>296</ele>
        <time>2017-02-08T13:55:59Z</time>
      </trkpt>
      <trkpt lat="43.42875" lon="6.0843">
        <ele>295.20001220703</ele>
        <time>2017-02-08T13:56:02Z</time>
      </trkpt>
      <trkpt lat="43.42856" lon="6.08403">
        <ele>294.39999389648</ele>
        <time>2017-02-08T13:56:09Z</time>
      </trkpt>
      <trkpt lat="43.42854" lon="6.08393">
        <ele>294.20001220703</ele>
        <time>2017-02-08T13:56:11Z</time>
      </trkpt>
      <trkpt lat="43.4285" lon="6.08377">
        <ele>294</ele>
        <time>2017-02-08T13:56:14Z</time>
      </trkpt>
      <trkpt lat="43.42849" lon="6.08371">
        <ele>293.79998779297</ele>
        <time>2017-02-08T13:56:15Z</time>
      </trkpt>
      <trkpt lat="43.42843" lon="6.08351">
        <ele>293.60000610352</ele>
        <time>2017-02-08T13:56:19Z</time>
      </trkpt>
      <trkpt lat="43.4284" lon="6.08335">
        <ele>293.39999389648</ele>
        <time>2017-02-08T13:56:22Z</time>
      </trkpt>
      <trkpt lat="43.42835" lon="6.08311">
        <ele>293</ele>
        <time>2017-02-08T13:56:26Z</time>
      </trkpt>
      <trkpt lat="43.42833" lon="6.08293">
        <ele>292.39999389648</ele>
        <time>2017-02-08T13:56:29Z</time>
      </trkpt>
      <trkpt lat="43.42831" lon="6.08287">
        <ele>292.39999389648</ele>
        <time>2017-02-08T13:56:30Z</time>
      </trkpt>
      <trkpt lat="43.42827" lon="6.08273">
        <ele>292.20001220703</ele>
        <time>2017-02-08T13:56:33Z</time>
      </trkpt>
      <trkpt lat="43.42812" lon="6.08254">
        <ele>293</ele>
        <time>2017-02-08T13:56:39Z</time>
      </trkpt>
      <trkpt lat="43.42791" lon="6.08253">
        <ele>292.60000610352</ele>
        <time>2017-02-08T13:56:46Z</time>
      </trkpt>
      <trkpt lat="43.42787" lon="6.08241">
        <ele>292.39999389648</ele>
        <time>2017-02-08T13:56:49Z</time>
      </trkpt>
      <trkpt lat="43.42781" lon="6.08218">
        <ele>292.20001220703</ele>
        <time>2017-02-08T13:56:53Z</time>
      </trkpt>
      <trkpt lat="43.42781" lon="6.08212">
        <ele>291.79998779297</ele>
        <time>2017-02-08T13:56:54Z</time>
      </trkpt>
      <trkpt lat="43.42781" lon="6.08199">
        <ele>291</ele>
        <time>2017-02-08T13:56:56Z</time>
      </trkpt>
      <trkpt lat="43.42778" lon="6.08182">
        <ele>289.79998779297</ele>
        <time>2017-02-08T13:56:59Z</time>
      </trkpt>
      <trkpt lat="43.42776" lon="6.08177">
        <ele>289.60000610352</ele>
        <time>2017-02-08T13:57:00Z</time>
      </trkpt>
      <trkpt lat="43.42761" lon="6.08157">
        <ele>288.20001220703</ele>
        <time>2017-02-08T13:57:05Z</time>
      </trkpt>
      <trkpt lat="43.42758" lon="6.08153">
        <ele>287.79998779297</ele>
        <time>2017-02-08T13:57:06Z</time>
      </trkpt>
      <trkpt lat="43.42752" lon="6.08144">
        <ele>287.39999389648</ele>
        <time>2017-02-08T13:57:08Z</time>
      </trkpt>
      <trkpt lat="43.42749" lon="6.08141">
        <ele>287</ele>
        <time>2017-02-08T13:57:09Z</time>
      </trkpt>
      <trkpt lat="43.42744" lon="6.08138">
        <ele>286.79998779297</ele>
        <time>2017-02-08T13:57:10Z</time>
      </trkpt>
      <trkpt lat="43.42736" lon="6.08135">
        <ele>286.39999389648</ele>
        <time>2017-02-08T13:57:12Z</time>
      </trkpt>
      <trkpt lat="43.4273" lon="6.08129">
        <ele>286.20001220703</ele>
        <time>2017-02-08T13:57:14Z</time>
      </trkpt>
      <trkpt lat="43.42727" lon="6.08125">
        <ele>285.79998779297</ele>
        <time>2017-02-08T13:57:15Z</time>
      </trkpt>
      <trkpt lat="43.4272" lon="6.08116">
        <ele>285.20001220703</ele>
        <time>2017-02-08T13:57:17Z</time>
      </trkpt>
      <trkpt lat="43.42712" lon="6.08111">
        <ele>284.60000610352</ele>
        <time>2017-02-08T13:57:19Z</time>
      </trkpt>
      <trkpt lat="43.42699" lon="6.08104">
        <ele>284.60000610352</ele>
        <time>2017-02-08T13:57:22Z</time>
      </trkpt>
      <trkpt lat="43.42688" lon="6.08094">
        <ele>284.79998779297</ele>
        <time>2017-02-08T13:57:25Z</time>
      </trkpt>
      <trkpt lat="43.42674" lon="6.08079">
        <ele>284.20001220703</ele>
        <time>2017-02-08T13:57:29Z</time>
      </trkpt>
      <trkpt lat="43.42667" lon="6.08072">
        <ele>283.79998779297</ele>
        <time>2017-02-08T13:57:31Z</time>
      </trkpt>
      <trkpt lat="43.42663" lon="6.0807">
        <ele>283.60000610352</ele>
        <time>2017-02-08T13:57:32Z</time>
      </trkpt>
      <trkpt lat="43.42659" lon="6.08069">
        <ele>283.60000610352</ele>
        <time>2017-02-08T13:57:33Z</time>
      </trkpt>
      <trkpt lat="43.42651" lon="6.08071">
        <ele>283.20001220703</ele>
        <time>2017-02-08T13:57:35Z</time>
      </trkpt>
      <trkpt lat="43.42635" lon="6.08083">
        <ele>283.20001220703</ele>
        <time>2017-02-08T13:57:39Z</time>
      </trkpt>
      <trkpt lat="43.42629" lon="6.08085">
        <ele>283</ele>
        <time>2017-02-08T13:57:41Z</time>
      </trkpt>
      <trkpt lat="43.42617" lon="6.08067">
        <ele>282.39999389648</ele>
        <time>2017-02-08T13:57:47Z</time>
      </trkpt>
      <trkpt lat="43.42617" lon="6.08062">
        <ele>282.39999389648</ele>
        <time>2017-02-08T13:57:48Z</time>
      </trkpt>
      <trkpt lat="43.42617" lon="6.08055">
        <ele>282</ele>
        <time>2017-02-08T13:57:49Z</time>
      </trkpt>
      <trkpt lat="43.42617" lon="6.08042">
        <ele>281</ele>
        <time>2017-02-08T13:57:51Z</time>
      </trkpt>
      <trkpt lat="43.42617" lon="6.08013">
        <ele>280.60000610352</ele>
        <time>2017-02-08T13:57:59Z</time>
      </trkpt>
      <trkpt lat="43.42614" lon="6.07991">
        <ele>279.79998779297</ele>
        <time>2017-02-08T13:58:04Z</time>
      </trkpt>
      <trkpt lat="43.42602" lon="6.07974">
        <ele>279</ele>
        <time>2017-02-08T13:58:09Z</time>
      </trkpt>
      <trkpt lat="43.42592" lon="6.07964">
        <ele>278.79998779297</ele>
        <time>2017-02-08T13:58:13Z</time>
      </trkpt>
      <trkpt lat="43.42573" lon="6.07947">
        <ele>277.79998779297</ele>
        <time>2017-02-08T13:58:19Z</time>
      </trkpt>
      <trkpt lat="43.42562" lon="6.07937">
        <ele>276</ele>
        <time>2017-02-08T13:58:22Z</time>
      </trkpt>
      <trkpt lat="43.42557" lon="6.07928">
        <ele>275.20001220703</ele>
        <time>2017-02-08T13:58:24Z</time>
      </trkpt>
      <trkpt lat="43.42553" lon="6.07909">
        <ele>274.39999389648</ele>
        <time>2017-02-08T13:58:27Z</time>
      </trkpt>
      <trkpt lat="43.4255" lon="6.07903">
        <ele>274.20001220703</ele>
        <time>2017-02-08T13:58:28Z</time>
      </trkpt>
      <trkpt lat="43.42547" lon="6.07899">
        <ele>274.20001220703</ele>
        <time>2017-02-08T13:58:29Z</time>
      </trkpt>
      <trkpt lat="43.42533" lon="6.07893">
        <ele>273.60000610352</ele>
        <time>2017-02-08T13:58:32Z</time>
      </trkpt>
      <trkpt lat="43.42522" lon="6.07893">
        <ele>273</ele>
        <time>2017-02-08T13:58:34Z</time>
      </trkpt>
      <trkpt lat="43.42517" lon="6.07893">
        <ele>272.60000610352</ele>
        <time>2017-02-08T13:58:35Z</time>
      </trkpt>
      <trkpt lat="43.425" lon="6.07896">
        <ele>271.39999389648</ele>
        <time>2017-02-08T13:58:38Z</time>
      </trkpt>
      <trkpt lat="43.42494" lon="6.07897">
        <ele>271.20001220703</ele>
        <time>2017-02-08T13:58:39Z</time>
      </trkpt>
      <trkpt lat="43.42484" lon="6.079">
        <ele>270.79998779297</ele>
        <time>2017-02-08T13:58:41Z</time>
      </trkpt>
      <trkpt lat="43.42473" lon="6.07905">
        <ele>270.60000610352</ele>
        <time>2017-02-08T13:58:43Z</time>
      </trkpt>
      <trkpt lat="43.42468" lon="6.07909">
        <ele>270.20001220703</ele>
        <time>2017-02-08T13:58:44Z</time>
      </trkpt>
      <trkpt lat="43.42459" lon="6.07917">
        <ele>269.39999389648</ele>
        <time>2017-02-08T13:58:46Z</time>
      </trkpt>
      <trkpt lat="43.42455" lon="6.07921">
        <ele>269.20001220703</ele>
        <time>2017-02-08T13:58:47Z</time>
      </trkpt>
      <trkpt lat="43.4245" lon="6.07924">
        <ele>268.79998779297</ele>
        <time>2017-02-08T13:58:49Z</time>
      </trkpt>
      <trkpt lat="43.42446" lon="6.07927">
        <ele>268.20001220703</ele>
        <time>2017-02-08T13:58:55Z</time>
      </trkpt>
      <trkpt lat="43.42445" lon="6.07926">
        <ele>268.20001220703</ele>
        <time>2017-02-08T13:58:56Z</time>
      </trkpt>
      <trkpt lat="43.42445" lon="6.07924">
        <ele>268</ele>
        <time>2017-02-08T13:58:59Z</time>
      </trkpt>
      <trkpt lat="43.42446" lon="6.07923">
        <ele>267.79998779297</ele>
        <time>2017-02-08T13:59:04Z</time>
      </trkpt>
      <trkpt lat="43.42447" lon="6.07923">
        <ele>267.79998779297</ele>
        <time>2017-02-08T13:59:06Z</time>
      </trkpt>
      <trkpt lat="43.42449" lon="6.07922">
        <ele>268</ele>
        <time>2017-02-08T13:59:09Z</time>
      </trkpt>
      <trkpt lat="43.42451" lon="6.07921">
        <ele>268.20001220703</ele>
        <time>2017-02-08T13:59:10Z</time>
      </trkpt>
      <trkpt lat="43.4245" lon="6.07916">
        <ele>268.60000610352</ele>
        <time>2017-02-08T13:59:14Z</time>
      </trkpt>
      <trkpt lat="43.42439" lon="6.07914">
        <ele>268.79998779297</ele>
        <time>2017-02-08T13:59:19Z</time>
      </trkpt>
      <trkpt lat="43.42408" lon="6.07911">
        <ele>268.20001220703</ele>
        <time>2017-02-08T13:59:29Z</time>
      </trkpt>
      <trkpt lat="43.42378" lon="6.07936">
        <ele>268.79998779297</ele>
        <time>2017-02-08T13:59:39Z</time>
      </trkpt>
      <trkpt lat="43.42355" lon="6.07964">
        <ele>268.20001220703</ele>
        <time>2017-02-08T13:59:49Z</time>
      </trkpt>
      <trkpt lat="43.42344" lon="6.07984">
        <ele>266.60000610352</ele>
        <time>2017-02-08T13:59:56Z</time>
      </trkpt>
      <trkpt lat="43.42341" lon="6.0799">
        <ele>265.60000610352</ele>
        <time>2017-02-08T13:59:58Z</time>
      </trkpt>
      <trkpt lat="43.42339" lon="6.07991">
        <ele>265.20001220703</ele>
        <time>2017-02-08T13:59:59Z</time>
      </trkpt>
      <trkpt lat="43.42334" lon="6.07994">
        <ele>264.39999389648</ele>
        <time>2017-02-08T14:00:01Z</time>
      </trkpt>
      <trkpt lat="43.42317" lon="6.07988">
        <ele>263</ele>
        <time>2017-02-08T14:00:06Z</time>
      </trkpt>
      <trkpt lat="43.42313" lon="6.07985">
        <ele>262.60000610352</ele>
        <time>2017-02-08T14:00:07Z</time>
      </trkpt>
      <trkpt lat="43.42305" lon="6.07977">
        <ele>262.39999389648</ele>
        <time>2017-02-08T14:00:09Z</time>
      </trkpt>
      <trkpt lat="43.42299" lon="6.0797">
        <ele>262.39999389648</ele>
        <time>2017-02-08T14:00:11Z</time>
      </trkpt>
      <trkpt lat="43.42293" lon="6.07965">
        <ele>262.20001220703</ele>
        <time>2017-02-08T14:00:13Z</time>
      </trkpt>
      <trkpt lat="43.42275" lon="6.07964">
        <ele>262</ele>
        <time>2017-02-08T14:00:18Z</time>
      </trkpt>
      <trkpt lat="43.42271" lon="6.07965">
        <ele>261.79998779297</ele>
        <time>2017-02-08T14:00:19Z</time>
      </trkpt>
      <trkpt lat="43.42255" lon="6.07967">
        <ele>260.79998779297</ele>
        <time>2017-02-08T14:00:24Z</time>
      </trkpt>
      <trkpt lat="43.42248" lon="6.0795">
        <ele>261.39999389648</ele>
        <time>2017-02-08T14:00:29Z</time>
      </trkpt>
      <trkpt lat="43.42247" lon="6.07946">
        <ele>261.79998779297</ele>
        <time>2017-02-08T14:00:30Z</time>
      </trkpt>
      <trkpt lat="43.42243" lon="6.07935">
        <ele>263</ele>
        <time>2017-02-08T14:00:33Z</time>
      </trkpt>
      <trkpt lat="43.42242" lon="6.07931">
        <ele>263.20001220703</ele>
        <time>2017-02-08T14:00:34Z</time>
      </trkpt>
      <trkpt lat="43.42241" lon="6.07922">
        <ele>263.39999389648</ele>
        <time>2017-02-08T14:00:36Z</time>
      </trkpt>
      <trkpt lat="43.42237" lon="6.07908">
        <ele>263</ele>
        <time>2017-02-08T14:00:39Z</time>
      </trkpt>
      <trkpt lat="43.42228" lon="6.07898">
        <ele>262</ele>
        <time>2017-02-08T14:00:43Z</time>
      </trkpt>
      <trkpt lat="43.42223" lon="6.07896">
        <ele>261.79998779297</ele>
        <time>2017-02-08T14:00:44Z</time>
      </trkpt>
      <trkpt lat="43.42211" lon="6.07891">
        <ele>260.79998779297</ele>
        <time>2017-02-08T14:00:47Z</time>
      </trkpt>
      <trkpt lat="43.42202" lon="6.07887">
        <ele>260.20001220703</ele>
        <time>2017-02-08T14:00:49Z</time>
      </trkpt>
      <trkpt lat="43.42194" lon="6.07884">
        <ele>259.79998779297</ele>
        <time>2017-02-08T14:00:51Z</time>
      </trkpt>
      <trkpt lat="43.42182" lon="6.07882">
        <ele>259.79998779297</ele>
        <time>2017-02-08T14:00:54Z</time>
      </trkpt>
      <trkpt lat="43.42168" lon="6.07882">
        <ele>260.20001220703</ele>
        <time>2017-02-08T14:00:59Z</time>
      </trkpt>
      <trkpt lat="43.4216" lon="6.0788">
        <ele>260.79998779297</ele>
        <time>2017-02-08T14:01:02Z</time>
      </trkpt>
      <trkpt lat="43.42157" lon="6.0788">
        <ele>260.79998779297</ele>
        <time>2017-02-08T14:01:03Z</time>
      </trkpt>
      <trkpt lat="43.42144" lon="6.07884">
        <ele>262.20001220703</ele>
        <time>2017-02-08T14:01:07Z</time>
      </trkpt>
      <trkpt lat="43.42138" lon="6.07886">
        <ele>262.60000610352</ele>
        <time>2017-02-08T14:01:09Z</time>
      </trkpt>
      <trkpt lat="43.42128" lon="6.07887">
        <ele>263.20001220703</ele>
        <time>2017-02-08T14:01:12Z</time>
      </trkpt>
      <trkpt lat="43.42119" lon="6.07887">
        <ele>264.20001220703</ele>
        <time>2017-02-08T14:01:15Z</time>
      </trkpt>
      <trkpt lat="43.42116" lon="6.07887">
        <ele>264.60000610352</ele>
        <time>2017-02-08T14:01:16Z</time>
      </trkpt>
      <trkpt lat="43.42106" lon="6.07885">
        <ele>265.39999389648</ele>
        <time>2017-02-08T14:01:19Z</time>
      </trkpt>
      <trkpt lat="43.42104" lon="6.07884">
        <ele>265.60000610352</ele>
        <time>2017-02-08T14:01:20Z</time>
      </trkpt>
      <trkpt lat="43.42101" lon="6.0788">
        <ele>266.20001220703</ele>
        <time>2017-02-08T14:01:22Z</time>
      </trkpt>
      <trkpt lat="43.42099" lon="6.07877">
        <ele>266.79998779297</ele>
        <time>2017-02-08T14:01:24Z</time>
      </trkpt>
      <trkpt lat="43.42099" lon="6.07876">
        <ele>267</ele>
        <time>2017-02-08T14:01:25Z</time>
      </trkpt>
      <trkpt lat="43.42099" lon="6.07869">
        <ele>267.20001220703</ele>
        <time>2017-02-08T14:01:29Z</time>
      </trkpt>
      <trkpt lat="43.42096" lon="6.07864">
        <ele>267.79998779297</ele>
        <time>2017-02-08T14:01:33Z</time>
      </trkpt>
      <trkpt lat="43.42095" lon="6.07864">
        <ele>267.79998779297</ele>
        <time>2017-02-08T14:01:34Z</time>
      </trkpt>
      <trkpt lat="43.42093" lon="6.07861">
        <ele>268</ele>
        <time>2017-02-08T14:01:37Z</time>
      </trkpt>
      <trkpt lat="43.42093" lon="6.07861">
        <ele>268</ele>
        <time>2017-02-08T14:01:39Z</time>
      </trkpt>
      <trkpt lat="43.42093" lon="6.07861">
        <ele>268</ele>
        <time>2017-02-08T14:01:41Z</time>
      </trkpt>
      <trkpt lat="43.42092" lon="6.0786">
        <ele>267.79998779297</ele>
        <time>2017-02-08T14:01:49Z</time>
      </trkpt>
      <trkpt lat="43.42093" lon="6.0786">
        <ele>268</ele>
        <time>2017-02-08T14:01:55Z</time>
      </trkpt>
      <trkpt lat="43.42093" lon="6.0786">
        <ele>268</ele>
        <time>2017-02-08T14:01:59Z</time>
      </trkpt>
      <trkpt lat="43.42093" lon="6.0786">
        <ele>268</ele>
        <time>2017-02-08T14:02:02Z</time>
      </trkpt>
      <trkpt lat="43.42092" lon="6.07855">
        <ele>267.79998779297</ele>
        <time>2017-02-08T14:02:06Z</time>
      </trkpt>
      <trkpt lat="43.42093" lon="6.07847">
        <ele>267.79998779297</ele>
        <time>2017-02-08T14:02:09Z</time>
      </trkpt>
      <trkpt lat="43.42096" lon="6.07821">
        <ele>266.79998779297</ele>
        <time>2017-02-08T14:02:15Z</time>
      </trkpt>
      <trkpt lat="43.421" lon="6.07808">
        <ele>266</ele>
        <time>2017-02-08T14:02:17Z</time>
      </trkpt>
      <trkpt lat="43.42102" lon="6.078">
        <ele>265.60000610352</ele>
        <time>2017-02-08T14:02:18Z</time>
      </trkpt>
      <trkpt lat="43.42104" lon="6.07792">
        <ele>265.20001220703</ele>
        <time>2017-02-08T14:02:19Z</time>
      </trkpt>
      <trkpt lat="43.42108" lon="6.07777">
        <ele>264.39999389648</ele>
        <time>2017-02-08T14:02:21Z</time>
      </trkpt>
      <trkpt lat="43.4212" lon="6.0773">
        <ele>262</ele>
        <time>2017-02-08T14:02:27Z</time>
      </trkpt>
      <trkpt lat="43.42124" lon="6.07715">
        <ele>261</ele>
        <time>2017-02-08T14:02:29Z</time>
      </trkpt>
      <trkpt lat="43.42127" lon="6.07707">
        <ele>261.20001220703</ele>
        <time>2017-02-08T14:02:30Z</time>
      </trkpt>
      <trkpt lat="43.42138" lon="6.07674">
        <ele>259.79998779297</ele>
        <time>2017-02-08T14:02:34Z</time>
      </trkpt>
      <trkpt lat="43.42147" lon="6.07642">
        <ele>258.39999389648</ele>
        <time>2017-02-08T14:02:38Z</time>
      </trkpt>
      <trkpt lat="43.42149" lon="6.07634">
        <ele>258</ele>
        <time>2017-02-08T14:02:39Z</time>
      </trkpt>
      <trkpt lat="43.42155" lon="6.07612">
        <ele>257.20001220703</ele>
        <time>2017-02-08T14:02:42Z</time>
      </trkpt>
      <trkpt lat="43.4216" lon="6.0759">
        <ele>256.79998779297</ele>
        <time>2017-02-08T14:02:45Z</time>
      </trkpt>
      <trkpt lat="43.42166" lon="6.07562">
        <ele>256.20001220703</ele>
        <time>2017-02-08T14:02:49Z</time>
      </trkpt>
      <trkpt lat="43.42178" lon="6.07498">
        <ele>255.80000305176</ele>
        <time>2017-02-08T14:02:59Z</time>
      </trkpt>
      <trkpt lat="43.42184" lon="6.07468">
        <ele>255.19999694824</ele>
        <time>2017-02-08T14:03:04Z</time>
      </trkpt>
      <trkpt lat="43.42186" lon="6.07462">
        <ele>255.19999694824</ele>
        <time>2017-02-08T14:03:05Z</time>
      </trkpt>
      <trkpt lat="43.42191" lon="6.07444">
        <ele>254.80000305176</ele>
        <time>2017-02-08T14:03:09Z</time>
      </trkpt>
      <trkpt lat="43.42194" lon="6.07416">
        <ele>254.80000305176</ele>
        <time>2017-02-08T14:03:14Z</time>
      </trkpt>
      <trkpt lat="43.42198" lon="6.07386">
        <ele>254.60000610352</ele>
        <time>2017-02-08T14:03:19Z</time>
      </trkpt>
      <trkpt lat="43.42202" lon="6.0736">
        <ele>255.19999694824</ele>
        <time>2017-02-08T14:03:24Z</time>
      </trkpt>
      <trkpt lat="43.42205" lon="6.07334">
        <ele>255</ele>
        <time>2017-02-08T14:03:29Z</time>
      </trkpt>
      <trkpt lat="43.42213" lon="6.07279">
        <ele>254.60000610352</ele>
        <time>2017-02-08T14:03:39Z</time>
      </trkpt>
      <trkpt lat="43.4222" lon="6.0723">
        <ele>255</ele>
        <time>2017-02-08T14:03:49Z</time>
      </trkpt>
      <trkpt lat="43.42226" lon="6.07179">
        <ele>254.80000305176</ele>
        <time>2017-02-08T14:03:59Z</time>
      </trkpt>
      <trkpt lat="43.42234" lon="6.07129">
        <ele>254.19999694824</ele>
        <time>2017-02-08T14:04:09Z</time>
      </trkpt>
      <trkpt lat="43.42236" lon="6.07079">
        <ele>255.19999694824</ele>
        <time>2017-02-08T14:04:19Z</time>
      </trkpt>
      <trkpt lat="43.42233" lon="6.07074">
        <ele>255.60000610352</ele>
        <time>2017-02-08T14:04:21Z</time>
      </trkpt>
      <trkpt lat="43.42229" lon="6.07072">
        <ele>256.20001220703</ele>
        <time>2017-02-08T14:04:23Z</time>
      </trkpt>
      <trkpt lat="43.42223" lon="6.0707">
        <ele>256.39999389648</ele>
        <time>2017-02-08T14:04:26Z</time>
      </trkpt>
      <trkpt lat="43.42219" lon="6.0707">
        <ele>256</ele>
        <time>2017-02-08T14:04:29Z</time>
      </trkpt>
      <trkpt lat="43.42214" lon="6.0707">
        <ele>255.80000305176</ele>
        <time>2017-02-08T14:04:39Z</time>
      </trkpt>
      <trkpt lat="43.4221" lon="6.07071">
        <ele>255.60000610352</ele>
        <time>2017-02-08T14:04:42Z</time>
      </trkpt>
      <trkpt lat="43.42202" lon="6.07072">
        <ele>255.19999694824</ele>
        <time>2017-02-08T14:04:45Z</time>
      </trkpt>
      <trkpt lat="43.42182" lon="6.0706">
        <ele>254.60000610352</ele>
        <time>2017-02-08T14:04:49Z</time>
      </trkpt>
      <trkpt lat="43.42166" lon="6.07062">
        <ele>254</ele>
        <time>2017-02-08T14:04:53Z</time>
      </trkpt>
      <trkpt lat="43.42162" lon="6.07067">
        <ele>253.60000610352</ele>
        <time>2017-02-08T14:04:55Z</time>
      </trkpt>
      <trkpt lat="43.4216" lon="6.07078">
        <ele>253.39999389648</ele>
        <time>2017-02-08T14:04:59Z</time>
      </trkpt>
      <trkpt lat="43.42164" lon="6.07097">
        <ele>252.80000305176</ele>
        <time>2017-02-08T14:05:03Z</time>
      </trkpt>
      <trkpt lat="43.42168" lon="6.07115">
        <ele>252.39999389648</ele>
        <time>2017-02-08T14:05:06Z</time>
      </trkpt>
      <trkpt lat="43.4217" lon="6.07131">
        <ele>252.19999694824</ele>
        <time>2017-02-08T14:05:09Z</time>
      </trkpt>
      <trkpt lat="43.42173" lon="6.07157">
        <ele>252.39999389648</ele>
        <time>2017-02-08T14:05:14Z</time>
      </trkpt>
      <trkpt lat="43.42173" lon="6.07171">
        <ele>253.39999389648</ele>
        <time>2017-02-08T14:05:17Z</time>
      </trkpt>
      <trkpt lat="43.42173" lon="6.07181">
        <ele>254</ele>
        <time>2017-02-08T14:05:19Z</time>
      </trkpt>
      <trkpt lat="43.4217" lon="6.07203">
        <ele>254.60000610352</ele>
        <time>2017-02-08T14:05:24Z</time>
      </trkpt>
      <trkpt lat="43.42168" lon="6.07217">
        <ele>255</ele>
        <time>2017-02-08T14:05:27Z</time>
      </trkpt>
      <trkpt lat="43.42167" lon="6.07226">
        <ele>255.19999694824</ele>
        <time>2017-02-08T14:05:29Z</time>
      </trkpt>
      <trkpt lat="43.42163" lon="6.07247">
        <ele>255.19999694824</ele>
        <time>2017-02-08T14:05:33Z</time>
      </trkpt>
      <trkpt lat="43.42155" lon="6.07279">
        <ele>254</ele>
        <time>2017-02-08T14:05:38Z</time>
      </trkpt>
      <trkpt lat="43.42154" lon="6.07287">
        <ele>253.60000610352</ele>
        <time>2017-02-08T14:05:39Z</time>
      </trkpt>
      <trkpt lat="43.42152" lon="6.07294">
        <ele>253.19999694824</ele>
        <time>2017-02-08T14:05:40Z</time>
      </trkpt>
      <trkpt lat="43.42151" lon="6.07301">
        <ele>253</ele>
        <time>2017-02-08T14:05:41Z</time>
      </trkpt>
      <trkpt lat="43.42147" lon="6.0733">
        <ele>252.39999389648</ele>
        <time>2017-02-08T14:05:45Z</time>
      </trkpt>
      <trkpt lat="43.42144" lon="6.07357">
        <ele>252.39999389648</ele>
        <time>2017-02-08T14:05:49Z</time>
      </trkpt>
      <trkpt lat="43.42137" lon="6.07422">
        <ele>253</ele>
        <time>2017-02-08T14:05:59Z</time>
      </trkpt>
      <trkpt lat="43.42125" lon="6.07472">
        <ele>254</ele>
        <time>2017-02-08T14:06:08Z</time>
      </trkpt>
      <trkpt lat="43.42124" lon="6.07477">
        <ele>254.39999389648</ele>
        <time>2017-02-08T14:06:09Z</time>
      </trkpt>
      <trkpt lat="43.4212" lon="6.07485">
        <ele>254.80000305176</ele>
        <time>2017-02-08T14:06:11Z</time>
      </trkpt>
      <trkpt lat="43.42114" lon="6.0749">
        <ele>255.39999389648</ele>
        <time>2017-02-08T14:06:13Z</time>
      </trkpt>
      <trkpt lat="43.42108" lon="6.07494">
        <ele>256.39999389648</ele>
        <time>2017-02-08T14:06:16Z</time>
      </trkpt>
      <trkpt lat="43.42106" lon="6.07495">
        <ele>257.20001220703</ele>
        <time>2017-02-08T14:06:19Z</time>
      </trkpt>
      <trkpt lat="43.42106" lon="6.07495">
        <ele>257.39999389648</ele>
        <time>2017-02-08T14:06:21Z</time>
      </trkpt>
      <trkpt lat="43.42099" lon="6.07495">
        <ele>257.79998779297</ele>
        <time>2017-02-08T14:06:29Z</time>
      </trkpt>
      <trkpt lat="43.42087" lon="6.07495">
        <ele>258.60000610352</ele>
        <time>2017-02-08T14:06:37Z</time>
      </trkpt>
      <trkpt lat="43.42084" lon="6.07496">
        <ele>258.79998779297</ele>
        <time>2017-02-08T14:06:39Z</time>
      </trkpt>
      <trkpt lat="43.42066" lon="6.07499">
        <ele>258.79998779297</ele>
        <time>2017-02-08T14:06:49Z</time>
      </trkpt>
      <trkpt lat="43.4206" lon="6.07499">
        <ele>258.60000610352</ele>
        <time>2017-02-08T14:06:52Z</time>
      </trkpt>
      <trkpt lat="43.42044" lon="6.07501">
        <ele>258.60000610352</ele>
        <time>2017-02-08T14:06:59Z</time>
      </trkpt>
      <trkpt lat="43.42032" lon="6.07502">
        <ele>258.60000610352</ele>
        <time>2017-02-08T14:07:04Z</time>
      </trkpt>
      <trkpt lat="43.42026" lon="6.07502">
        <ele>258.60000610352</ele>
        <time>2017-02-08T14:07:07Z</time>
      </trkpt>
      <trkpt lat="43.42022" lon="6.07502">
        <ele>258.39999389648</ele>
        <time>2017-02-08T14:07:09Z</time>
      </trkpt>
      <trkpt lat="43.42014" lon="6.07494">
        <ele>258.39999389648</ele>
        <time>2017-02-08T14:07:13Z</time>
      </trkpt>
      <trkpt lat="43.42009" lon="6.07484">
        <ele>258.20001220703</ele>
        <time>2017-02-08T14:07:16Z</time>
      </trkpt>
      <trkpt lat="43.42006" lon="6.07472">
        <ele>257.79998779297</ele>
        <time>2017-02-08T14:07:19Z</time>
      </trkpt>
      <trkpt lat="43.42002" lon="6.07456">
        <ele>257.79998779297</ele>
        <time>2017-02-08T14:07:23Z</time>
      </trkpt>
      <trkpt lat="43.41997" lon="6.07439">
        <ele>257.60000610352</ele>
        <time>2017-02-08T14:07:28Z</time>
      </trkpt>
      <trkpt lat="43.41996" lon="6.07435">
        <ele>257.39999389648</ele>
        <time>2017-02-08T14:07:29Z</time>
      </trkpt>
      <trkpt lat="43.41993" lon="6.0739">
        <ele>257.20001220703</ele>
        <time>2017-02-08T14:07:39Z</time>
      </trkpt>
      <trkpt lat="43.4199" lon="6.0737">
        <ele>256.79998779297</ele>
        <time>2017-02-08T14:07:42Z</time>
      </trkpt>
      <trkpt lat="43.41988" lon="6.07364">
        <ele>256.39999389648</ele>
        <time>2017-02-08T14:07:43Z</time>
      </trkpt>
      <trkpt lat="43.4198" lon="6.07343">
        <ele>255.19999694824</ele>
        <time>2017-02-08T14:07:46Z</time>
      </trkpt>
      <trkpt lat="43.41972" lon="6.07323">
        <ele>254</ele>
        <time>2017-02-08T14:07:49Z</time>
      </trkpt>
      <trkpt lat="43.41961" lon="6.07297">
        <ele>252.80000305176</ele>
        <time>2017-02-08T14:07:53Z</time>
      </trkpt>
      <trkpt lat="43.41953" lon="6.07278">
        <ele>251.39999389648</ele>
        <time>2017-02-08T14:07:56Z</time>
      </trkpt>
      <trkpt lat="43.41948" lon="6.07266">
        <ele>250</ele>
        <time>2017-02-08T14:07:58Z</time>
      </trkpt>
      <trkpt lat="43.41945" lon="6.0726">
        <ele>249.60000610352</ele>
        <time>2017-02-08T14:07:59Z</time>
      </trkpt>
      <trkpt lat="43.41934" lon="6.07234">
        <ele>248.19999694824</ele>
        <time>2017-02-08T14:08:03Z</time>
      </trkpt>
      <trkpt lat="43.41932" lon="6.07227">
        <ele>247.39999389648</ele>
        <time>2017-02-08T14:08:04Z</time>
      </trkpt>
      <trkpt lat="43.41922" lon="6.07203">
        <ele>245</ele>
        <time>2017-02-08T14:08:08Z</time>
      </trkpt>
      <trkpt lat="43.41919" lon="6.07198">
        <ele>244.80000305176</ele>
        <time>2017-02-08T14:08:09Z</time>
      </trkpt>
      <trkpt lat="43.41911" lon="6.07193">
        <ele>243.39999389648</ele>
        <time>2017-02-08T14:08:11Z</time>
      </trkpt>
      <trkpt lat="43.419" lon="6.07194">
        <ele>242.39999389648</ele>
        <time>2017-02-08T14:08:13Z</time>
      </trkpt>
      <trkpt lat="43.41886" lon="6.07203">
        <ele>241.80000305176</ele>
        <time>2017-02-08T14:08:16Z</time>
      </trkpt>
      <trkpt lat="43.41869" lon="6.07208">
        <ele>241</ele>
        <time>2017-02-08T14:08:19Z</time>
      </trkpt>
      <trkpt lat="43.41862" lon="6.07217">
        <ele>240.60000610352</ele>
        <time>2017-02-08T14:08:21Z</time>
      </trkpt>
      <trkpt lat="43.41858" lon="6.07248">
        <ele>240.60000610352</ele>
        <time>2017-02-08T14:08:26Z</time>
      </trkpt>
      <trkpt lat="43.41859" lon="6.07263">
        <ele>241</ele>
        <time>2017-02-08T14:08:29Z</time>
      </trkpt>
      <trkpt lat="43.41859" lon="6.07267">
        <ele>242</ele>
        <time>2017-02-08T14:08:35Z</time>
      </trkpt>
      <trkpt lat="43.41858" lon="6.07268">
        <ele>242</ele>
        <time>2017-02-08T14:08:37Z</time>
      </trkpt>
      <trkpt lat="43.41857" lon="6.07269">
        <ele>242.19999694824</ele>
        <time>2017-02-08T14:08:39Z</time>
      </trkpt>
      <trkpt lat="43.41854" lon="6.07273">
        <ele>242.19999694824</ele>
        <time>2017-02-08T14:08:47Z</time>
      </trkpt>
      <trkpt lat="43.41855" lon="6.07276">
        <ele>242.19999694824</ele>
        <time>2017-02-08T14:08:49Z</time>
      </trkpt>
      <trkpt lat="43.41857" lon="6.07277">
        <ele>241.80000305176</ele>
        <time>2017-02-08T14:08:57Z</time>
      </trkpt>
      <trkpt lat="43.41858" lon="6.07277">
        <ele>242</ele>
        <time>2017-02-08T14:08:59Z</time>
      </trkpt>
      <trkpt lat="43.41858" lon="6.07279">
        <ele>242</ele>
        <time>2017-02-08T14:09:08Z</time>
      </trkpt>
      <trkpt lat="43.41858" lon="6.07279">
        <ele>242</ele>
        <time>2017-02-08T14:09:09Z</time>
      </trkpt>
      <trkpt lat="43.41857" lon="6.07278">
        <ele>242.39999389648</ele>
        <time>2017-02-08T14:09:19Z</time>
      </trkpt>
      <trkpt lat="43.41858" lon="6.0728">
        <ele>242.19999694824</ele>
        <time>2017-02-08T14:09:25Z</time>
      </trkpt>
    </trkseg>
  </trk>
</gpx>